<?xml version="1.0" encoding="UTF-8" standalone="no" ?><gpx xmlns="http://www.topografix.com/GPX/1/1" xmlns:gpxx="http://www.garmin.com/xmlschemas/GpxExtensions/v3" xmlns:gpxtrkx="http://www.garmin.com/xmlschemas/TrackStatsExtension/v1" xmlns:wptx1="http://www.garmin.com/xmlschemas/WaypointExtension/v1" xmlns:gpxtpx="http://www.garmin.com/xmlschemas/TrackPointExtension/v1" creator="GPSMAP 66ST" version="1.1" xmlns:xsi="http://www.w3.org/2001/XMLSchema-instance" xsi:schemaLocation="http://www.topografix.com/GPX/1/1 http://www.topografix.com/GPX/1/1/gpx.xsd http://www.garmin.com/xmlschemas/GpxExtensions/v3 http://www8.garmin.com/xmlschemas/GpxExtensionsv3.xsd http://www.garmin.com/xmlschemas/TrackStatsExtension/v1 http://www8.garmin.com/xmlschemas/TrackStatsExtension.xsd http://www.garmin.com/xmlschemas/WaypointExtension/v1 http://www8.garmin.com/xmlschemas/WaypointExtensionv1.xsd http://www.garmin.com/xmlschemas/TrackPointExtension/v1 http://www.garmin.com/xmlschemas/TrackPointExtensionv1.xsd"><metadata><link href="http://www.garmin.com"><text>Garmin International</text></link><time>2026-04-25T18:19:51Z</time></metadata><trk><name>Пср6-04-25 21:19:14</name><extensions><gpxx:TrackExtension><gpxx:DisplayColor>Cyan</gpxx:DisplayColor></gpxx:TrackExtension><gpxtrkx:TrackStatsExtension><gpxtrkx:Distance>9195.000</gpxtrkx:Distance><gpxtrkx:TimerTime>20651</gpxtrkx:TimerTime><gpxtrkx:TotalElapsedTime>20689</gpxtrkx:TotalElapsedTime><gpxtrkx:MovingTime>12192</gpxtrkx:MovingTime><gpxtrkx:StoppedTime>8498</gpxtrkx:StoppedTime><gpxtrkx:MovingSpeed>0.754</gpxtrkx:MovingSpeed><gpxtrkx:MaxSpeed>1.495</gpxtrkx:MaxSpeed><gpxtrkx:MaxElevation>115.158</gpxtrkx:MaxElevation><gpxtrkx:MinElevation>64.253</gpxtrkx:MinElevation><gpxtrkx:Ascent>334.000</gpxtrkx:Ascent><gpxtrkx:Descent>300.941</gpxtrkx:Descent><gpxtrkx:AvgAscentRate>0.042</gpxtrkx:AvgAscentRate><gpxtrkx:MaxAscentRate>0.168</gpxtrkx:MaxAscentRate><gpxtrkx:AvgDescentRate>0.050</gpxtrkx:AvgDescentRate><gpxtrkx:MaxDescentRate>-0.093</gpxtrkx:MaxDescentRate><gpxtrkx:Calories>354</gpxtrkx:Calories></gpxtrkx:TrackStatsExtension></extensions><trkseg><trkpt lat="59.0672864020" lon="30.0736796670"><ele>74.61</ele><time>2026-04-25T12:35:02Z</time></trkpt><trkpt lat="59.0672864020" lon="30.0736798346"><ele>75.75</ele><time>2026-04-25T12:35:03Z</time></trkpt><trkpt lat="59.0672862343" lon="30.0736814272"><ele>75.55</ele><time>2026-04-25T12:35:25Z</time></trkpt><trkpt lat="59.0672867373" lon="30.0736818463"><ele>78.70</ele><time>2026-04-25T12:35:31Z</time></trkpt><trkpt lat="59.0672870725" lon="30.0736848637"><ele>75.59</ele><time>2026-04-25T12:35:43Z</time></trkpt><trkpt lat="59.0672882460" lon="30.0736881327"><ele>74.39</ele><time>2026-04-25T12:36:13Z</time></trkpt><trkpt lat="59.0672872402" lon="30.0736915693"><ele>77.78</ele><time>2026-04-25T12:36:33Z</time></trkpt><trkpt lat="59.0672854800" lon="30.0737018790"><ele>79.27</ele><time>2026-04-25T12:36:36Z</time></trkpt><trkpt lat="59.0672915149" lon="30.0737159606"><ele>76.79</ele><time>2026-04-25T12:36:45Z</time></trkpt><trkpt lat="59.0673131403" lon="30.0738988537"><ele>76.59</ele><time>2026-04-25T12:37:00Z</time></trkpt><trkpt lat="59.0673280600" lon="30.0740308687"><ele>76.92</ele><time>2026-04-25T12:37:06Z</time></trkpt><trkpt lat="59.0673408844" lon="30.0743464474"><ele>73.70</ele><time>2026-04-25T12:37:19Z</time></trkpt><trkpt lat="59.0673498530" lon="30.0745271612"><ele>76.08</ele><time>2026-04-25T12:37:28Z</time></trkpt><trkpt lat="59.0673531219" lon="30.0746458489"><ele>79.85</ele><time>2026-04-25T12:37:33Z</time></trkpt><trkpt lat="59.0673557203" lon="30.0747206155"><ele>81.60</ele><time>2026-04-25T12:37:36Z</time></trkpt><trkpt lat="59.0673796926" lon="30.0748978090"><ele>78.50</ele><time>2026-04-25T12:37:45Z</time></trkpt><trkpt lat="59.0674134716" lon="30.0752351806"><ele>77.55</ele><time>2026-04-25T12:38:01Z</time></trkpt><trkpt lat="59.0674167406" lon="30.0753437262"><ele>76.01</ele><time>2026-04-25T12:38:05Z</time></trkpt><trkpt lat="59.0674375277" lon="30.0755572971"><ele>78.49</ele><time>2026-04-25T12:38:15Z</time></trkpt><trkpt lat="59.0674330853" lon="30.0755873043"><ele>78.39</ele><time>2026-04-25T12:38:16Z</time></trkpt><trkpt lat="59.0674354322" lon="30.0756494980"><ele>77.99</ele><time>2026-04-25T12:38:19Z</time></trkpt><trkpt lat="59.0674358513" lon="30.0756745599"><ele>77.90</ele><time>2026-04-25T12:38:20Z</time></trkpt><trkpt lat="59.0674339235" lon="30.0757011306"><ele>77.85</ele><time>2026-04-25T12:38:21Z</time></trkpt><trkpt lat="59.0674338397" lon="30.0757271145"><ele>77.82</ele><time>2026-04-25T12:38:22Z</time></trkpt><trkpt lat="59.0674355160" lon="30.0757517572"><ele>77.92</ele><time>2026-04-25T12:38:23Z</time></trkpt><trkpt lat="59.0674587339" lon="30.0760124344"><ele>78.78</ele><time>2026-04-25T12:38:34Z</time></trkpt><trkpt lat="59.0674729832" lon="30.0761773903"><ele>75.64</ele><time>2026-04-25T12:38:41Z</time></trkpt><trkpt lat="59.0674988832" lon="30.0764810666"><ele>77.72</ele><time>2026-04-25T12:38:53Z</time></trkpt><trkpt lat="59.0675001405" lon="30.0765044522"><ele>77.92</ele><time>2026-04-25T12:38:54Z</time></trkpt><trkpt lat="59.0675030742" lon="30.0765271671"><ele>78.16</ele><time>2026-04-25T12:38:55Z</time></trkpt><trkpt lat="59.0675039962" lon="30.0765487924"><ele>78.61</ele><time>2026-04-25T12:38:56Z</time></trkpt><trkpt lat="59.0675044991" lon="30.0765727647"><ele>79.03</ele><time>2026-04-25T12:38:57Z</time></trkpt><trkpt lat="59.0675043315" lon="30.0766072143"><ele>79.13</ele><time>2026-04-25T12:38:58Z</time></trkpt><trkpt lat="59.0675241966" lon="30.0769130699"><ele>78.97</ele><time>2026-04-25T12:39:11Z</time></trkpt><trkpt lat="59.0675259568" lon="30.0769589189"><ele>78.90</ele><time>2026-04-25T12:39:13Z</time></trkpt><trkpt lat="59.0675410442" lon="30.0770807918"><ele>75.75</ele><time>2026-04-25T12:39:19Z</time></trkpt><trkpt lat="59.0675487556" lon="30.0772082806"><ele>77.77</ele><time>2026-04-25T12:39:24Z</time></trkpt><trkpt lat="59.0675665252" lon="30.0773814507"><ele>77.48</ele><time>2026-04-25T12:39:31Z</time></trkpt><trkpt lat="59.0675667766" lon="30.0774083566"><ele>78.50</ele><time>2026-04-25T12:39:32Z</time></trkpt><trkpt lat="59.0676096082" lon="30.0778062455"><ele>78.19</ele><time>2026-04-25T12:39:48Z</time></trkpt><trkpt lat="59.0676404536" lon="30.0781908911"><ele>78.68</ele><time>2026-04-25T12:40:03Z</time></trkpt><trkpt lat="59.0676914994" lon="30.0786179490"><ele>78.47</ele><time>2026-04-25T12:40:20Z</time></trkpt><trkpt lat="59.0677168127" lon="30.0788968988"><ele>77.89</ele><time>2026-04-25T12:40:32Z</time></trkpt><trkpt lat="59.0677183215" lon="30.0789225474"><ele>77.82</ele><time>2026-04-25T12:40:33Z</time></trkpt><trkpt lat="59.0677194111" lon="30.0789484475"><ele>77.78</ele><time>2026-04-25T12:40:34Z</time></trkpt><trkpt lat="59.0677192435" lon="30.0789740961"><ele>78.01</ele><time>2026-04-25T12:40:35Z</time></trkpt><trkpt lat="59.0677199140" lon="30.0789979845"><ele>78.34</ele><time>2026-04-25T12:40:36Z</time></trkpt><trkpt lat="59.0677867178" lon="30.0793942809"><ele>78.36</ele><time>2026-04-25T12:40:55Z</time></trkpt><trkpt lat="59.0678058285" lon="30.0796248671"><ele>77.19</ele><time>2026-04-25T12:41:10Z</time></trkpt><trkpt lat="59.0678107738" lon="30.0796189159"><ele>76.07</ele><time>2026-04-25T12:41:25Z</time></trkpt><trkpt lat="59.0678101871" lon="30.0796187483"><ele>75.10</ele><time>2026-04-25T12:41:34Z</time></trkpt><trkpt lat="59.0678094327" lon="30.0796198379"><ele>78.22</ele><time>2026-04-25T12:41:42Z</time></trkpt><trkpt lat="59.0678090136" lon="30.0796210114"><ele>74.91</ele><time>2026-04-25T12:41:46Z</time></trkpt><trkpt lat="59.0678090136" lon="30.0796210114"><ele>74.92</ele><time>2026-04-25T12:41:47Z</time></trkpt><trkpt lat="59.0678080078" lon="30.0796227716"><ele>78.08</ele><time>2026-04-25T12:42:01Z</time></trkpt><trkpt lat="59.0678080078" lon="30.0796236098"><ele>74.89</ele><time>2026-04-25T12:42:18Z</time></trkpt><trkpt lat="59.0678077564" lon="30.0796247832"><ele>78.17</ele><time>2026-04-25T12:42:24Z</time></trkpt><trkpt lat="59.0678053256" lon="30.0796153955"><ele>69.44</ele><time>2026-04-25T12:42:32Z</time></trkpt><trkpt lat="59.0678054094" lon="30.0796151441"><ele>64.12</ele><time>2026-04-25T12:42:33Z</time></trkpt><trkpt lat="59.0678051580" lon="30.0796150602"><ele>59.94</ele><time>2026-04-25T12:42:35Z</time></trkpt><trkpt lat="59.0678060800" lon="30.0796148926"><ele>63.96</ele><time>2026-04-25T12:42:39Z</time></trkpt><trkpt lat="59.0678046551" lon="30.0796157308"><ele>67.63</ele><time>2026-04-25T12:42:42Z</time></trkpt><trkpt lat="59.0678066667" lon="30.0796150602"><ele>72.23</ele><time>2026-04-25T12:42:45Z</time></trkpt><trkpt lat="59.0678064153" lon="30.0796149764"><ele>72.92</ele><time>2026-04-25T12:42:47Z</time></trkpt><trkpt lat="59.0678082593" lon="30.0796113722"><ele>75.93</ele><time>2026-04-25T12:43:20Z</time></trkpt><trkpt lat="59.0678088460" lon="30.0796101987"><ele>79.28</ele><time>2026-04-25T12:43:33Z</time></trkpt><trkpt lat="59.0678031463" lon="30.0796054211"><ele>83.34</ele><time>2026-04-25T12:43:41Z</time></trkpt><trkpt lat="59.0678054094" lon="30.0796017330"><ele>86.80</ele><time>2026-04-25T12:43:44Z</time></trkpt><trkpt lat="59.0678055771" lon="30.0796012301"><ele>87.07</ele><time>2026-04-25T12:43:45Z</time></trkpt><trkpt lat="59.0678057447" lon="30.0796000566"><ele>83.26</ele><time>2026-04-25T12:43:50Z</time></trkpt><trkpt lat="59.0678072535" lon="30.0795979612"><ele>80.15</ele><time>2026-04-25T12:43:56Z</time></trkpt><trkpt lat="59.0678106900" lon="30.0796051696"><ele>77.12</ele><time>2026-04-25T12:44:10Z</time></trkpt><trkpt lat="59.0678480733" lon="30.0796447322"><ele>76.66</ele><time>2026-04-25T12:44:29Z</time></trkpt><trkpt lat="59.0679064114" lon="30.0797632523"><ele>76.89</ele><time>2026-04-25T12:44:48Z</time></trkpt><trkpt lat="59.0679396875" lon="30.0796903297"><ele>72.94</ele><time>2026-04-25T12:44:57Z</time></trkpt><trkpt lat="59.0679721255" lon="30.0796561316"><ele>72.40</ele><time>2026-04-25T12:45:07Z</time></trkpt><trkpt lat="59.0680299606" lon="30.0796534494"><ele>75.66</ele><time>2026-04-25T12:45:12Z</time></trkpt><trkpt lat="59.0680502448" lon="30.0796716381"><ele>79.78</ele><time>2026-04-25T12:45:14Z</time></trkpt><trkpt lat="59.0681711119" lon="30.0797093567"><ele>77.86</ele><time>2026-04-25T12:45:31Z</time></trkpt><trkpt lat="59.0683163702" lon="30.0796154793"><ele>79.04</ele><time>2026-04-25T12:45:50Z</time></trkpt><trkpt lat="59.0684374887" lon="30.0795739889"><ele>79.04</ele><time>2026-04-25T12:46:06Z</time></trkpt><trkpt lat="59.0685637202" lon="30.0795231946"><ele>78.58</ele><time>2026-04-25T12:46:22Z</time></trkpt><trkpt lat="59.0687423386" lon="30.0794620067"><ele>78.38</ele><time>2026-04-25T12:46:40Z</time></trkpt><trkpt lat="59.0688540693" lon="30.0794242043"><ele>79.28</ele><time>2026-04-25T12:46:52Z</time></trkpt><trkpt lat="59.0689837374" lon="30.0792594999"><ele>79.17</ele><time>2026-04-25T12:47:09Z</time></trkpt><trkpt lat="59.0691384673" lon="30.0793198496"><ele>79.10</ele><time>2026-04-25T12:47:28Z</time></trkpt><trkpt lat="59.0691625234" lon="30.0793636870"><ele>75.76</ele><time>2026-04-25T12:47:33Z</time></trkpt><trkpt lat="59.0691809636" lon="30.0793761760"><ele>74.66</ele><time>2026-04-25T12:47:35Z</time></trkpt><trkpt lat="59.0692077857" lon="30.0793897547"><ele>74.22</ele><time>2026-04-25T12:47:39Z</time></trkpt><trkpt lat="59.0692291595" lon="30.0793860666"><ele>75.55</ele><time>2026-04-25T12:47:42Z</time></trkpt><trkpt lat="59.0692388825" lon="30.0793832168"><ele>78.59</ele><time>2026-04-25T12:47:51Z</time></trkpt><trkpt lat="59.0692392178" lon="30.0793842226"><ele>79.30</ele><time>2026-04-25T12:47:53Z</time></trkpt><trkpt lat="59.0692384634" lon="30.0793861505"><ele>81.08</ele><time>2026-04-25T12:47:58Z</time></trkpt><trkpt lat="59.0692383796" lon="30.0793859828"><ele>77.73</ele><time>2026-04-25T12:48:11Z</time></trkpt><trkpt lat="59.0692385472" lon="30.0793858990"><ele>77.51</ele><time>2026-04-25T12:48:12Z</time></trkpt><trkpt lat="59.0692387149" lon="30.0793818757"><ele>78.87</ele><time>2026-04-25T12:48:43Z</time></trkpt><trkpt lat="59.0692543052" lon="30.0793833006"><ele>77.93</ele><time>2026-04-25T12:49:06Z</time></trkpt><trkpt lat="59.0692585800" lon="30.0793850608"><ele>78.09</ele><time>2026-04-25T12:49:35Z</time></trkpt><trkpt lat="59.0693661198" lon="30.0793092046"><ele>78.51</ele><time>2026-04-25T12:50:02Z</time></trkpt><trkpt lat="59.0694655292" lon="30.0793194305"><ele>79.06</ele><time>2026-04-25T12:50:21Z</time></trkpt><trkpt lat="59.0696087759" lon="30.0793409720"><ele>78.62</ele><time>2026-04-25T12:50:44Z</time></trkpt><trkpt lat="59.0697521064" lon="30.0792607572"><ele>78.54</ele><time>2026-04-25T12:51:00Z</time></trkpt><trkpt lat="59.0699256118" lon="30.0791720767"><ele>78.63</ele><time>2026-04-25T12:51:20Z</time></trkpt><trkpt lat="59.0701141208" lon="30.0790838990"><ele>78.49</ele><time>2026-04-25T12:51:39Z</time></trkpt><trkpt lat="59.0701506659" lon="30.0790859945"><ele>78.49</ele><time>2026-04-25T12:51:58Z</time></trkpt><trkpt lat="59.0701753087" lon="30.0790505391"><ele>78.49</ele><time>2026-04-25T12:52:21Z</time></trkpt><trkpt lat="59.0701742191" lon="30.0789977331"><ele>78.49</ele><time>2026-04-25T12:52:47Z</time></trkpt><trkpt lat="59.0701706149" lon="30.0789900217"><ele>78.49</ele><time>2026-04-25T12:53:06Z</time></trkpt><trkpt lat="59.0702162962" lon="30.0789984036"><ele>78.49</ele><time>2026-04-25T12:53:25Z</time></trkpt><trkpt lat="59.0703506581" lon="30.0789071247"><ele>78.49</ele><time>2026-04-25T12:53:46Z</time></trkpt><trkpt lat="59.0704851039" lon="30.0789473578"><ele>78.49</ele><time>2026-04-25T12:54:04Z</time></trkpt><trkpt lat="59.0706369001" lon="30.0789177697"><ele>78.49</ele><time>2026-04-25T12:54:23Z</time></trkpt><trkpt lat="59.0708065499" lon="30.0788668916"><ele>78.49</ele><time>2026-04-25T12:54:42Z</time></trkpt><trkpt lat="59.0709936339" lon="30.0788172707"><ele>78.49</ele><time>2026-04-25T12:55:03Z</time></trkpt><trkpt lat="59.0710078832" lon="30.0787969865"><ele>78.49</ele><time>2026-04-25T12:55:31Z</time></trkpt><trkpt lat="59.0710452665" lon="30.0787852518"><ele>78.49</ele><time>2026-04-25T12:55:52Z</time></trkpt><trkpt lat="59.0711957216" lon="30.0787454378"><ele>78.49</ele><time>2026-04-25T12:56:11Z</time></trkpt><trkpt lat="59.0712721646" lon="30.0786984991"><ele>78.49</ele><time>2026-04-25T12:56:21Z</time></trkpt><trkpt lat="59.0714802034" lon="30.0786274206"><ele>77.92</ele><time>2026-04-25T12:56:41Z</time></trkpt><trkpt lat="59.0716447402" lon="30.0786135904"><ele>78.37</ele><time>2026-04-25T12:57:00Z</time></trkpt><trkpt lat="59.0717834607" lon="30.0785728544"><ele>79.17</ele><time>2026-04-25T12:57:20Z</time></trkpt><trkpt lat="59.0719110332" lon="30.0785782188"><ele>79.00</ele><time>2026-04-25T12:57:42Z</time></trkpt><trkpt lat="59.0719169006" lon="30.0785916299"><ele>78.83</ele><time>2026-04-25T12:58:09Z</time></trkpt><trkpt lat="59.0719821118" lon="30.0785679091"><ele>78.83</ele><time>2026-04-25T12:58:31Z</time></trkpt><trkpt lat="59.0721321478" lon="30.0785669871"><ele>79.05</ele><time>2026-04-25T12:58:50Z</time></trkpt><trkpt lat="59.0722377598" lon="30.0785301905"><ele>78.93</ele><time>2026-04-25T12:59:08Z</time></trkpt><trkpt lat="59.0722665936" lon="30.0784918852"><ele>76.07</ele><time>2026-04-25T12:59:24Z</time></trkpt><trkpt lat="59.0722823516" lon="30.0784530770"><ele>79.94</ele><time>2026-04-25T12:59:29Z</time></trkpt><trkpt lat="59.0722833574" lon="30.0784451980"><ele>80.02</ele><time>2026-04-25T12:59:30Z</time></trkpt><trkpt lat="59.0724419430" lon="30.0782467145"><ele>79.50</ele><time>2026-04-25T12:59:49Z</time></trkpt><trkpt lat="59.0725191403" lon="30.0781069882"><ele>79.49</ele><time>2026-04-25T13:00:05Z</time></trkpt><trkpt lat="59.0725955833" lon="30.0781344809"><ele>79.60</ele><time>2026-04-25T13:00:23Z</time></trkpt><trkpt lat="59.0726567712" lon="30.0780590437"><ele>80.04</ele><time>2026-04-25T13:00:38Z</time></trkpt><trkpt lat="59.0727557614" lon="30.0780326407"><ele>80.70</ele><time>2026-04-25T13:00:56Z</time></trkpt><trkpt lat="59.0727568511" lon="30.0780316349"><ele>80.99</ele><time>2026-04-25T13:00:57Z</time></trkpt><trkpt lat="59.0727450326" lon="30.0780171342"><ele>80.10</ele><time>2026-04-25T13:01:25Z</time></trkpt><trkpt lat="59.0727277659" lon="30.0780175533"><ele>78.77</ele><time>2026-04-25T13:01:39Z</time></trkpt><trkpt lat="59.0727001056" lon="30.0780238397"><ele>81.38</ele><time>2026-04-25T13:01:47Z</time></trkpt><trkpt lat="59.0725958347" lon="30.0779871270"><ele>79.74</ele><time>2026-04-25T13:02:03Z</time></trkpt><trkpt lat="59.0725124348" lon="30.0777867995"><ele>79.55</ele><time>2026-04-25T13:02:19Z</time></trkpt><trkpt lat="59.0725004487" lon="30.0775745697"><ele>79.38</ele><time>2026-04-25T13:02:36Z</time></trkpt><trkpt lat="59.0724976826" lon="30.0775782578"><ele>80.56</ele><time>2026-04-25T13:03:10Z</time></trkpt><trkpt lat="59.0724975150" lon="30.0775800180"><ele>80.70</ele><time>2026-04-25T13:03:37Z</time></trkpt><trkpt lat="59.0724919830" lon="30.0775713008"><ele>77.23</ele><time>2026-04-25T13:03:55Z</time></trkpt><trkpt lat="59.0724907257" lon="30.0775742345"><ele>80.56</ele><time>2026-04-25T13:04:00Z</time></trkpt><trkpt lat="59.0724887978" lon="30.0775712170"><ele>80.30</ele><time>2026-04-25T13:04:37Z</time></trkpt><trkpt lat="59.0724863671" lon="30.0775446463"><ele>80.30</ele><time>2026-04-25T13:04:41Z</time></trkpt><trkpt lat="59.0724478941" lon="30.0772886630"><ele>79.88</ele><time>2026-04-25T13:04:58Z</time></trkpt><trkpt lat="59.0724316332" lon="30.0770477671"><ele>80.23</ele><time>2026-04-25T13:05:16Z</time></trkpt><trkpt lat="59.0724290349" lon="30.0767276622"><ele>80.39</ele><time>2026-04-25T13:05:34Z</time></trkpt><trkpt lat="59.0724097565" lon="30.0765075535"><ele>80.19</ele><time>2026-04-25T13:05:48Z</time></trkpt><trkpt lat="59.0724227484" lon="30.0762380753"><ele>80.59</ele><time>2026-04-25T13:06:06Z</time></trkpt><trkpt lat="59.0723955072" lon="30.0760342274"><ele>80.67</ele><time>2026-04-25T13:06:23Z</time></trkpt><trkpt lat="59.0723449644" lon="30.0758720376"><ele>80.71</ele><time>2026-04-25T13:06:36Z</time></trkpt><trkpt lat="59.0723245963" lon="30.0756360870"><ele>80.67</ele><time>2026-04-25T13:06:53Z</time></trkpt><trkpt lat="59.0723083355" lon="30.0753314048"><ele>80.97</ele><time>2026-04-25T13:07:09Z</time></trkpt><trkpt lat="59.0722758975" lon="30.0750765949"><ele>81.35</ele><time>2026-04-25T13:07:25Z</time></trkpt><trkpt lat="59.0722708683" lon="30.0750272255"><ele>78.32</ele><time>2026-04-25T13:07:36Z</time></trkpt><trkpt lat="59.0722696111" lon="30.0750283990"><ele>81.66</ele><time>2026-04-25T13:07:41Z</time></trkpt><trkpt lat="59.0722699463" lon="30.0750281475"><ele>81.95</ele><time>2026-04-25T13:07:42Z</time></trkpt><trkpt lat="59.0722694434" lon="30.0750245433"><ele>82.36</ele><time>2026-04-25T13:08:02Z</time></trkpt><trkpt lat="59.0722668450" lon="30.0749947038"><ele>81.33</ele><time>2026-04-25T13:08:22Z</time></trkpt><trkpt lat="59.0722655877" lon="30.0749922730"><ele>82.48</ele><time>2026-04-25T13:08:37Z</time></trkpt><trkpt lat="59.0722601395" lon="30.0748195220"><ele>81.15</ele><time>2026-04-25T13:09:05Z</time></trkpt><trkpt lat="59.0722896438" lon="30.0745363813"><ele>81.14</ele><time>2026-04-25T13:09:26Z</time></trkpt><trkpt lat="59.0723144542" lon="30.0742471218"><ele>80.40</ele><time>2026-04-25T13:09:46Z</time></trkpt><trkpt lat="59.0723007079" lon="30.0739717763"><ele>80.40</ele><time>2026-04-25T13:10:04Z</time></trkpt><trkpt lat="59.0722508356" lon="30.0737288687"><ele>80.40</ele><time>2026-04-25T13:10:25Z</time></trkpt><trkpt lat="59.0722282045" lon="30.0735982787"><ele>80.40</ele><time>2026-04-25T13:10:44Z</time></trkpt><trkpt lat="59.0722002089" lon="30.0734167267"><ele>80.40</ele><time>2026-04-25T13:11:01Z</time></trkpt><trkpt lat="59.0721748956" lon="30.0731682032"><ele>80.57</ele><time>2026-04-25T13:11:16Z</time></trkpt><trkpt lat="59.0721712913" lon="30.0731400400"><ele>81.70</ele><time>2026-04-25T13:11:18Z</time></trkpt><trkpt lat="59.0721564554" lon="30.0729537942"><ele>82.30</ele><time>2026-04-25T13:11:35Z</time></trkpt><trkpt lat="59.0721584670" lon="30.0728019141"><ele>79.81</ele><time>2026-04-25T13:11:53Z</time></trkpt><trkpt lat="59.0721641667" lon="30.0728018302"><ele>83.21</ele><time>2026-04-25T13:12:07Z</time></trkpt><trkpt lat="59.0721724648" lon="30.0728037581"><ele>85.01</ele><time>2026-04-25T13:12:11Z</time></trkpt><trkpt lat="59.0722633246" lon="30.0727931131"><ele>81.99</ele><time>2026-04-25T13:12:33Z</time></trkpt><trkpt lat="59.0723815095" lon="30.0727616809"><ele>81.97</ele><time>2026-04-25T13:12:51Z</time></trkpt><trkpt lat="59.0723941661" lon="30.0727469288"><ele>81.97</ele><time>2026-04-25T13:13:50Z</time></trkpt><trkpt lat="59.0723996144" lon="30.0727373734"><ele>81.97</ele><time>2026-04-25T13:14:31Z</time></trkpt><trkpt lat="59.0723986086" lon="30.0727364514"><ele>76.58</ele><time>2026-04-25T13:14:36Z</time></trkpt><trkpt lat="59.0723989438" lon="30.0727371220"><ele>77.28</ele><time>2026-04-25T13:14:37Z</time></trkpt><trkpt lat="59.0724045597" lon="30.0727324281"><ele>80.50</ele><time>2026-04-25T13:14:41Z</time></trkpt><trkpt lat="59.0724038053" lon="30.0727349427"><ele>79.96</ele><time>2026-04-25T13:14:42Z</time></trkpt><trkpt lat="59.0724150371" lon="30.0727307517"><ele>83.88</ele><time>2026-04-25T13:14:47Z</time></trkpt><trkpt lat="59.0724174678" lon="30.0727330986"><ele>84.15</ele><time>2026-04-25T13:14:48Z</time></trkpt><trkpt lat="59.0725206491" lon="30.0728144869"><ele>82.05</ele><time>2026-04-25T13:15:06Z</time></trkpt><trkpt lat="59.0726347268" lon="30.0728221983"><ele>81.62</ele><time>2026-04-25T13:15:22Z</time></trkpt><trkpt lat="59.0727154445" lon="30.0728465896"><ele>81.79</ele><time>2026-04-25T13:15:39Z</time></trkpt><trkpt lat="59.0727513190" lon="30.0727466773"><ele>81.61</ele><time>2026-04-25T13:15:52Z</time></trkpt><trkpt lat="59.0728111658" lon="30.0727085397"><ele>81.70</ele><time>2026-04-25T13:16:08Z</time></trkpt><trkpt lat="59.0728429332" lon="30.0727947894"><ele>81.87</ele><time>2026-04-25T13:16:20Z</time></trkpt><trkpt lat="59.0729174484" lon="30.0727686379"><ele>81.71</ele><time>2026-04-25T13:16:35Z</time></trkpt><trkpt lat="59.0729599446" lon="30.0728730764"><ele>81.79</ele><time>2026-04-25T13:16:49Z</time></trkpt><trkpt lat="59.0729819052" lon="30.0729577336"><ele>81.79</ele><time>2026-04-25T13:17:07Z</time></trkpt><trkpt lat="59.0730773751" lon="30.0730014872"><ele>81.79</ele><time>2026-04-25T13:17:27Z</time></trkpt><trkpt lat="59.0730927978" lon="30.0730070192"><ele>81.79</ele><time>2026-04-25T13:17:56Z</time></trkpt><trkpt lat="59.0732331108" lon="30.0730052590"><ele>81.79</ele><time>2026-04-25T13:18:16Z</time></trkpt><trkpt lat="59.0733911935" lon="30.0730135571"><ele>82.30</ele><time>2026-04-25T13:18:33Z</time></trkpt><trkpt lat="59.0734823048" lon="30.0729854777"><ele>82.71</ele><time>2026-04-25T13:18:53Z</time></trkpt><trkpt lat="59.0736423153" lon="30.0730028283"><ele>82.60</ele><time>2026-04-25T13:19:14Z</time></trkpt><trkpt lat="59.0737381205" lon="30.0730573107"><ele>82.40</ele><time>2026-04-25T13:19:34Z</time></trkpt><trkpt lat="59.0737328399" lon="30.0730688777"><ele>82.40</ele><time>2026-04-25T13:19:58Z</time></trkpt><trkpt lat="59.0737216920" lon="30.0730568077"><ele>82.40</ele><time>2026-04-25T13:20:24Z</time></trkpt><trkpt lat="59.0737504419" lon="30.0731033273"><ele>82.40</ele><time>2026-04-25T13:20:46Z</time></trkpt><trkpt lat="59.0738273878" lon="30.0731285568"><ele>82.40</ele><time>2026-04-25T13:21:01Z</time></trkpt><trkpt lat="59.0740042459" lon="30.0729960389"><ele>82.40</ele><time>2026-04-25T13:21:24Z</time></trkpt><trkpt lat="59.0741545334" lon="30.0730430614"><ele>82.40</ele><time>2026-04-25T13:21:43Z</time></trkpt><trkpt lat="59.0743187349" lon="30.0730313268"><ele>82.40</ele><time>2026-04-25T13:22:04Z</time></trkpt><trkpt lat="59.0744882170" lon="30.0729690492"><ele>82.40</ele><time>2026-04-25T13:22:21Z</time></trkpt><trkpt lat="59.0745589603" lon="30.0729385391"><ele>82.40</ele><time>2026-04-25T13:22:30Z</time></trkpt><trkpt lat="59.0746009536" lon="30.0728860684"><ele>82.40</ele><time>2026-04-25T13:22:35Z</time></trkpt><trkpt lat="59.0747069009" lon="30.0727988966"><ele>82.40</ele><time>2026-04-25T13:22:48Z</time></trkpt><trkpt lat="59.0748134349" lon="30.0728050154"><ele>82.40</ele><time>2026-04-25T13:23:08Z</time></trkpt><trkpt lat="59.0749438573" lon="30.0727398880"><ele>82.57</ele><time>2026-04-25T13:23:26Z</time></trkpt><trkpt lat="59.0750353877" lon="30.0727149937"><ele>82.82</ele><time>2026-04-25T13:23:43Z</time></trkpt><trkpt lat="59.0750366449" lon="30.0727112219"><ele>82.26</ele><time>2026-04-25T13:24:10Z</time></trkpt><trkpt lat="59.0750353038" lon="30.0727117248"><ele>82.77</ele><time>2026-04-25T13:24:25Z</time></trkpt><trkpt lat="59.0750721842" lon="30.0727417320"><ele>82.48</ele><time>2026-04-25T13:24:40Z</time></trkpt><trkpt lat="59.0751958173" lon="30.0726977270"><ele>82.57</ele><time>2026-04-25T13:24:56Z</time></trkpt><trkpt lat="59.0752764512" lon="30.0726616010"><ele>82.57</ele><time>2026-04-25T13:25:08Z</time></trkpt><trkpt lat="59.0753872599" lon="30.0725046080"><ele>82.38</ele><time>2026-04-25T13:25:32Z</time></trkpt><trkpt lat="59.0755078755" lon="30.0724647939"><ele>81.98</ele><time>2026-04-25T13:25:52Z</time></trkpt><trkpt lat="59.0756110568" lon="30.0723848306"><ele>82.39</ele><time>2026-04-25T13:26:05Z</time></trkpt><trkpt lat="59.0756988153" lon="30.0724399835"><ele>82.05</ele><time>2026-04-25T13:26:23Z</time></trkpt><trkpt lat="59.0758668724" lon="30.0724512152"><ele>82.85</ele><time>2026-04-25T13:26:42Z</time></trkpt><trkpt lat="59.0760233626" lon="30.0724946335"><ele>82.71</ele><time>2026-04-25T13:27:02Z</time></trkpt><trkpt lat="59.0761099476" lon="30.0725072902"><ele>82.65</ele><time>2026-04-25T13:27:14Z</time></trkpt><trkpt lat="59.0761343390" lon="30.0725041050"><ele>81.52</ele><time>2026-04-25T13:27:25Z</time></trkpt><trkpt lat="59.0761371888" lon="30.0724994950"><ele>83.76</ele><time>2026-04-25T13:27:38Z</time></trkpt><trkpt lat="59.0761396196" lon="30.0724971481"><ele>83.93</ele><time>2026-04-25T13:27:50Z</time></trkpt><trkpt lat="59.0761480853" lon="30.0724886823"><ele>82.39</ele><time>2026-04-25T13:28:20Z</time></trkpt><trkpt lat="59.0761441458" lon="30.0724830665"><ele>79.87</ele><time>2026-04-25T13:28:35Z</time></trkpt><trkpt lat="59.0761577245" lon="30.0724720024"><ele>82.94</ele><time>2026-04-25T13:28:44Z</time></trkpt><trkpt lat="59.0763060004" lon="30.0724586751"><ele>81.68</ele><time>2026-04-25T13:29:09Z</time></trkpt><trkpt lat="59.0763757378" lon="30.0724177714"><ele>82.50</ele><time>2026-04-25T13:29:28Z</time></trkpt><trkpt lat="59.0764727164" lon="30.0723894406"><ele>81.62</ele><time>2026-04-25T13:29:43Z</time></trkpt><trkpt lat="59.0765515063" lon="30.0723192003"><ele>81.62</ele><time>2026-04-25T13:29:59Z</time></trkpt><trkpt lat="59.0765726287" lon="30.0723116565"><ele>81.62</ele><time>2026-04-25T13:30:13Z</time></trkpt><trkpt lat="59.0766211599" lon="30.0722438470"><ele>81.62</ele><time>2026-04-25T13:30:31Z</time></trkpt><trkpt lat="59.0766885504" lon="30.0721682422"><ele>81.62</ele><time>2026-04-25T13:30:43Z</time></trkpt><trkpt lat="59.0767363273" lon="30.0721119158"><ele>81.62</ele><time>2026-04-25T13:30:56Z</time></trkpt><trkpt lat="59.0767770633" lon="30.0720184576"><ele>81.62</ele><time>2026-04-25T13:31:09Z</time></trkpt><trkpt lat="59.0767880436" lon="30.0719322078"><ele>81.62</ele><time>2026-04-25T13:31:23Z</time></trkpt><trkpt lat="59.0768467169" lon="30.0718589500"><ele>81.62</ele><time>2026-04-25T13:31:38Z</time></trkpt><trkpt lat="59.0768825915" lon="30.0718422700"><ele>81.62</ele><time>2026-04-25T13:31:49Z</time></trkpt><trkpt lat="59.0769323800" lon="30.0717875361"><ele>81.62</ele><time>2026-04-25T13:32:02Z</time></trkpt><trkpt lat="59.0769695118" lon="30.0717334729"><ele>81.62</ele><time>2026-04-25T13:32:17Z</time></trkpt><trkpt lat="59.0769963339" lon="30.0716422778"><ele>81.62</ele><time>2026-04-25T13:32:29Z</time></trkpt><trkpt lat="59.0770577732" lon="30.0715901423"><ele>81.62</ele><time>2026-04-25T13:32:44Z</time></trkpt><trkpt lat="59.0770996828" lon="30.0715505797"><ele>81.62</ele><time>2026-04-25T13:32:57Z</time></trkpt><trkpt lat="59.0771392453" lon="30.0714964326"><ele>81.62</ele><time>2026-04-25T13:33:09Z</time></trkpt><trkpt lat="59.0771892015" lon="30.0713847857"><ele>81.62</ele><time>2026-04-25T13:33:23Z</time></trkpt><trkpt lat="59.0772304405" lon="30.0713639986"><ele>81.62</ele><time>2026-04-25T13:33:38Z</time></trkpt><trkpt lat="59.0772341285" lon="30.0713510066"><ele>81.62</ele><time>2026-04-25T13:33:52Z</time></trkpt><trkpt lat="59.0772300214" lon="30.0713418704"><ele>81.62</ele><time>2026-04-25T13:34:13Z</time></trkpt><trkpt lat="59.0772314463" lon="30.0713489112"><ele>81.62</ele><time>2026-04-25T13:34:35Z</time></trkpt><trkpt lat="59.0772304405" lon="30.0713445526"><ele>81.62</ele><time>2026-04-25T13:35:05Z</time></trkpt><trkpt lat="59.0772886109" lon="30.0712236017"><ele>81.62</ele><time>2026-04-25T13:35:29Z</time></trkpt><trkpt lat="59.0773590188" lon="30.0712215062"><ele>83.77</ele><time>2026-04-25T13:35:42Z</time></trkpt><trkpt lat="59.0773751121" lon="30.0712287147"><ele>83.72</ele><time>2026-04-25T13:36:03Z</time></trkpt><trkpt lat="59.0773918759" lon="30.0712238532"><ele>83.84</ele><time>2026-04-25T13:36:23Z</time></trkpt><trkpt lat="59.0774126630" lon="30.0712034013"><ele>83.63</ele><time>2026-04-25T13:36:36Z</time></trkpt><trkpt lat="59.0774561651" lon="30.0711688679"><ele>83.64</ele><time>2026-04-25T13:36:50Z</time></trkpt><trkpt lat="59.0775235556" lon="30.0710721407"><ele>83.64</ele><time>2026-04-25T13:37:05Z</time></trkpt><trkpt lat="59.0775626153" lon="30.0709967874"><ele>83.64</ele><time>2026-04-25T13:37:18Z</time></trkpt><trkpt lat="59.0775802173" lon="30.0709230267"><ele>83.64</ele><time>2026-04-25T13:37:35Z</time></trkpt><trkpt lat="59.0776165109" lon="30.0709181651"><ele>83.64</ele><time>2026-04-25T13:37:50Z</time></trkpt><trkpt lat="59.0776624437" lon="30.0709310733"><ele>83.64</ele><time>2026-04-25T13:38:07Z</time></trkpt><trkpt lat="59.0777025092" lon="30.0709418859"><ele>83.64</ele><time>2026-04-25T13:38:25Z</time></trkpt><trkpt lat="59.0777642839" lon="30.0709257089"><ele>83.64</ele><time>2026-04-25T13:38:42Z</time></trkpt><trkpt lat="59.0778270643" lon="30.0708718970"><ele>83.64</ele><time>2026-04-25T13:39:02Z</time></trkpt><trkpt lat="59.0778836422" lon="30.0708634313"><ele>83.64</ele><time>2026-04-25T13:39:20Z</time></trkpt><trkpt lat="59.0779087041" lon="30.0708717294"><ele>83.64</ele><time>2026-04-25T13:39:39Z</time></trkpt><trkpt lat="59.0780083649" lon="30.0709157344"><ele>83.64</ele><time>2026-04-25T13:39:55Z</time></trkpt><trkpt lat="59.0781262144" lon="30.0707546342"><ele>83.64</ele><time>2026-04-25T13:40:14Z</time></trkpt><trkpt lat="59.0783135500" lon="30.0706946198"><ele>83.64</ele><time>2026-04-25T13:40:34Z</time></trkpt><trkpt lat="59.0783474967" lon="30.0706794485"><ele>83.64</ele><time>2026-04-25T13:41:04Z</time></trkpt><trkpt lat="59.0783489216" lon="30.0706724077"><ele>83.64</ele><time>2026-04-25T13:41:36Z</time></trkpt><trkpt lat="59.0783542860" lon="30.0706930272"><ele>83.64</ele><time>2026-04-25T13:42:00Z</time></trkpt><trkpt lat="59.0783820301" lon="30.0706891716"><ele>83.64</ele><time>2026-04-25T13:42:35Z</time></trkpt><trkpt lat="59.0783823654" lon="30.0706901774"><ele>88.70</ele><time>2026-04-25T13:42:51Z</time></trkpt><trkpt lat="59.0783823654" lon="30.0706901774"><ele>88.60</ele><time>2026-04-25T13:42:52Z</time></trkpt><trkpt lat="59.0783849638" lon="30.0706889201"><ele>85.56</ele><time>2026-04-25T13:43:04Z</time></trkpt><trkpt lat="59.0783857182" lon="30.0706850644"><ele>82.19</ele><time>2026-04-25T13:43:07Z</time></trkpt><trkpt lat="59.0783861373" lon="30.0706833042"><ele>81.37</ele><time>2026-04-25T13:43:09Z</time></trkpt><trkpt lat="59.0783900768" lon="30.0706701446"><ele>84.62</ele><time>2026-04-25T13:43:19Z</time></trkpt><trkpt lat="59.0783892386" lon="30.0706673786"><ele>85.96</ele><time>2026-04-25T13:43:22Z</time></trkpt><trkpt lat="59.0783867240" lon="30.0706653669"><ele>84.11</ele><time>2026-04-25T13:43:28Z</time></trkpt><trkpt lat="59.0783931781" lon="30.0706745870"><ele>85.56</ele><time>2026-04-25T13:43:57Z</time></trkpt><trkpt lat="59.0784022305" lon="30.0706710666"><ele>88.58</ele><time>2026-04-25T13:44:09Z</time></trkpt><trkpt lat="59.0783983748" lon="30.0706645288"><ele>85.34</ele><time>2026-04-25T13:44:20Z</time></trkpt><trkpt lat="59.0783907473" lon="30.0706563145"><ele>83.80</ele><time>2026-04-25T13:44:23Z</time></trkpt><trkpt lat="59.0783869755" lon="30.0706478488"><ele>85.07</ele><time>2026-04-25T13:44:58Z</time></trkpt><trkpt lat="59.0783961117" lon="30.0706414785"><ele>88.51</ele><time>2026-04-25T13:45:01Z</time></trkpt><trkpt lat="59.0783946868" lon="30.0706535485"><ele>88.65</ele><time>2026-04-25T13:45:02Z</time></trkpt><trkpt lat="59.0784387756" lon="30.0706821308"><ele>87.20</ele><time>2026-04-25T13:45:19Z</time></trkpt><trkpt lat="59.0785483271" lon="30.0706549734"><ele>85.88</ele><time>2026-04-25T13:45:38Z</time></trkpt><trkpt lat="59.0787054878" lon="30.0706102140"><ele>86.10</ele><time>2026-04-25T13:45:59Z</time></trkpt><trkpt lat="59.0787945036" lon="30.0705767702"><ele>86.09</ele><time>2026-04-25T13:46:21Z</time></trkpt><trkpt lat="59.0788053162" lon="30.0705752615"><ele>86.19</ele><time>2026-04-25T13:46:49Z</time></trkpt><trkpt lat="59.0788815077" lon="30.0704372115"><ele>86.30</ele><time>2026-04-25T13:47:06Z</time></trkpt><trkpt lat="59.0790291969" lon="30.0704488624"><ele>86.30</ele><time>2026-04-25T13:47:25Z</time></trkpt><trkpt lat="59.0791498963" lon="30.0705357827"><ele>86.30</ele><time>2026-04-25T13:47:42Z</time></trkpt><trkpt lat="59.0792686678" lon="30.0705371238"><ele>86.30</ele><time>2026-04-25T13:47:59Z</time></trkpt><trkpt lat="59.0794018563" lon="30.0704996567"><ele>86.30</ele><time>2026-04-25T13:48:16Z</time></trkpt><trkpt lat="59.0795226395" lon="30.0704093836"><ele>86.30</ele><time>2026-04-25T13:48:35Z</time></trkpt><trkpt lat="59.0796559956" lon="30.0703689829"><ele>86.30</ele><time>2026-04-25T13:48:54Z</time></trkpt><trkpt lat="59.0797573328" lon="30.0703343656"><ele>86.30</ele><time>2026-04-25T13:49:12Z</time></trkpt><trkpt lat="59.0798715781" lon="30.0703103095"><ele>86.30</ele><time>2026-04-25T13:49:28Z</time></trkpt><trkpt lat="59.0799997374" lon="30.0702757761"><ele>86.30</ele><time>2026-04-25T13:49:46Z</time></trkpt><trkpt lat="59.0800071135" lon="30.0702717528"><ele>86.30</ele><time>2026-04-25T13:50:28Z</time></trkpt><trkpt lat="59.0800069459" lon="30.0702694058"><ele>86.30</ele><time>2026-04-25T13:50:51Z</time></trkpt><trkpt lat="59.0800900944" lon="30.0702437572"><ele>86.30</ele><time>2026-04-25T13:51:05Z</time></trkpt><trkpt lat="59.0801775176" lon="30.0701307692"><ele>86.30</ele><time>2026-04-25T13:51:21Z</time></trkpt><trkpt lat="59.0802667011" lon="30.0701745227"><ele>86.30</ele><time>2026-04-25T13:51:36Z</time></trkpt><trkpt lat="59.0803546272" lon="30.0700546615"><ele>86.30</ele><time>2026-04-25T13:51:54Z</time></trkpt><trkpt lat="59.0804234426" lon="30.0699805655"><ele>86.30</ele><time>2026-04-25T13:52:08Z</time></trkpt><trkpt lat="59.0805195831" lon="30.0698699243"><ele>86.30</ele><time>2026-04-25T13:52:26Z</time></trkpt><trkpt lat="59.0805845428" lon="30.0698605366"><ele>86.30</ele><time>2026-04-25T13:52:39Z</time></trkpt><trkpt lat="59.0806184895" lon="30.0698608719"><ele>86.30</ele><time>2026-04-25T13:52:54Z</time></trkpt><trkpt lat="59.0806390252" lon="30.0698613748"><ele>86.30</ele><time>2026-04-25T13:53:07Z</time></trkpt><trkpt lat="59.0806805994" lon="30.0698959082"><ele>86.30</ele><time>2026-04-25T13:53:22Z</time></trkpt><trkpt lat="59.0807321481" lon="30.0698017795"><ele>86.30</ele><time>2026-04-25T13:53:35Z</time></trkpt><trkpt lat="59.0807890613" lon="30.0697063096"><ele>86.30</ele><time>2026-04-25T13:53:49Z</time></trkpt><trkpt lat="59.0808240138" lon="30.0696348958"><ele>86.30</ele><time>2026-04-25T13:54:02Z</time></trkpt><trkpt lat="59.0808237623" lon="30.0696125161"><ele>86.30</ele><time>2026-04-25T13:54:17Z</time></trkpt><trkpt lat="59.0808588825" lon="30.0696193054"><ele>86.30</ele><time>2026-04-25T13:54:30Z</time></trkpt><trkpt lat="59.0808801726" lon="30.0696241669"><ele>86.30</ele><time>2026-04-25T13:54:49Z</time></trkpt><trkpt lat="59.0808890574" lon="30.0696543418"><ele>86.30</ele><time>2026-04-25T13:55:03Z</time></trkpt><trkpt lat="59.0809245966" lon="30.0696700159"><ele>86.30</ele><time>2026-04-25T13:55:18Z</time></trkpt><trkpt lat="59.0809927415" lon="30.0697226543"><ele>86.30</ele><time>2026-04-25T13:55:32Z</time></trkpt><trkpt lat="59.0811028797" lon="30.0697208941"><ele>86.30</ele><time>2026-04-25T13:55:51Z</time></trkpt><trkpt lat="59.0811640676" lon="30.0697360653"><ele>86.30</ele><time>2026-04-25T13:56:16Z</time></trkpt><trkpt lat="59.0811730362" lon="30.0697257556"><ele>86.30</ele><time>2026-04-25T13:56:34Z</time></trkpt><trkpt lat="59.0811938234" lon="30.0697058905"><ele>86.30</ele><time>2026-04-25T13:56:59Z</time></trkpt><trkpt lat="59.0812159516" lon="30.0697819982"><ele>86.30</ele><time>2026-04-25T13:57:19Z</time></trkpt><trkpt lat="59.0812429413" lon="30.0697616301"><ele>86.30</ele><time>2026-04-25T13:57:36Z</time></trkpt><trkpt lat="59.0812754631" lon="30.0697516557"><ele>86.30</ele><time>2026-04-25T13:57:51Z</time></trkpt><trkpt lat="59.0813638084" lon="30.0698138494"><ele>86.30</ele><time>2026-04-25T13:58:08Z</time></trkpt><trkpt lat="59.0814061370" lon="30.0698969141"><ele>86.30</ele><time>2026-04-25T13:58:23Z</time></trkpt><trkpt lat="59.0814757068" lon="30.0699431822"><ele>86.30</ele><time>2026-04-25T13:58:40Z</time></trkpt><trkpt lat="59.0815058816" lon="30.0698337145"><ele>86.30</ele><time>2026-04-25T13:59:01Z</time></trkpt><trkpt lat="59.0815303568" lon="30.0697770528"><ele>86.30</ele><time>2026-04-25T13:59:21Z</time></trkpt><trkpt lat="59.0815332904" lon="30.0697302818"><ele>86.30</ele><time>2026-04-25T13:59:26Z</time></trkpt><trkpt lat="59.0815771278" lon="30.0696437806"><ele>86.30</ele><time>2026-04-25T13:59:40Z</time></trkpt><trkpt lat="59.0816202108" lon="30.0695556868"><ele>86.30</ele><time>2026-04-25T13:59:58Z</time></trkpt><trkpt lat="59.0816821530" lon="30.0695378333"><ele>86.30</ele><time>2026-04-25T14:00:13Z</time></trkpt><trkpt lat="59.0817058738" lon="30.0694887992"><ele>86.30</ele><time>2026-04-25T14:00:22Z</time></trkpt><trkpt lat="59.0817540698" lon="30.0693339854"><ele>86.30</ele><time>2026-04-25T14:00:34Z</time></trkpt><trkpt lat="59.0818018466" lon="30.0692391861"><ele>86.32</ele><time>2026-04-25T14:00:48Z</time></trkpt><trkpt lat="59.0818343684" lon="30.0691250246"><ele>86.59</ele><time>2026-04-25T14:01:01Z</time></trkpt><trkpt lat="59.0818897728" lon="30.0689937640"><ele>86.93</ele><time>2026-04-25T14:01:15Z</time></trkpt><trkpt lat="59.0819616057" lon="30.0689088553"><ele>87.18</ele><time>2026-04-25T14:01:29Z</time></trkpt><trkpt lat="59.0820290800" lon="30.0688645151"><ele>87.54</ele><time>2026-04-25T14:01:41Z</time></trkpt><trkpt lat="59.0820631944" lon="30.0687646028"><ele>87.59</ele><time>2026-04-25T14:01:55Z</time></trkpt><trkpt lat="59.0820736717" lon="30.0687642675"><ele>87.75</ele><time>2026-04-25T14:02:14Z</time></trkpt><trkpt lat="59.0820708219" lon="30.0687637646"><ele>87.37</ele><time>2026-04-25T14:02:33Z</time></trkpt><trkpt lat="59.0820705704" lon="30.0687752478"><ele>87.04</ele><time>2026-04-25T14:02:55Z</time></trkpt><trkpt lat="59.0820760187" lon="30.0687819533"><ele>86.85</ele><time>2026-04-25T14:03:18Z</time></trkpt><trkpt lat="59.0820815507" lon="30.0688087754"><ele>86.67</ele><time>2026-04-25T14:03:45Z</time></trkpt><trkpt lat="59.0820834786" lon="30.0688112900"><ele>87.24</ele><time>2026-04-25T14:04:06Z</time></trkpt><trkpt lat="59.0820864122" lon="30.0687963702"><ele>87.24</ele><time>2026-04-25T14:04:24Z</time></trkpt><trkpt lat="59.0820853226" lon="30.0687944423"><ele>83.51</ele><time>2026-04-25T14:04:53Z</time></trkpt><trkpt lat="59.0820838977" lon="30.0687936042"><ele>87.23</ele><time>2026-04-25T14:05:12Z</time></trkpt><trkpt lat="59.0820842329" lon="30.0687939394"><ele>87.96</ele><time>2026-04-25T14:05:14Z</time></trkpt><trkpt lat="59.0820828918" lon="30.0687883236"><ele>85.09</ele><time>2026-04-25T14:05:49Z</time></trkpt><trkpt lat="59.0820817184" lon="30.0687879045"><ele>83.52</ele><time>2026-04-25T14:05:53Z</time></trkpt><trkpt lat="59.0820781142" lon="30.0687879883"><ele>86.40</ele><time>2026-04-25T14:06:29Z</time></trkpt><trkpt lat="59.0820787847" lon="30.0687874854"><ele>83.31</ele><time>2026-04-25T14:06:40Z</time></trkpt><trkpt lat="59.0820755996" lon="30.0687839650"><ele>80.20</ele><time>2026-04-25T14:06:42Z</time></trkpt><trkpt lat="59.0820789523" lon="30.0687625911"><ele>84.23</ele><time>2026-04-25T14:06:53Z</time></trkpt><trkpt lat="59.0820769407" lon="30.0687597413"><ele>89.84</ele><time>2026-04-25T14:06:54Z</time></trkpt><trkpt lat="59.0820765216" lon="30.0687587354"><ele>92.17</ele><time>2026-04-25T14:06:57Z</time></trkpt><trkpt lat="59.0820810478" lon="30.0687661953"><ele>88.71</ele><time>2026-04-25T14:07:07Z</time></trkpt><trkpt lat="59.0820774436" lon="30.0687681232"><ele>87.46</ele><time>2026-04-25T14:07:10Z</time></trkpt><trkpt lat="59.0820764378" lon="30.0687662791"><ele>84.68</ele><time>2026-04-25T14:07:20Z</time></trkpt><trkpt lat="59.0820771921" lon="30.0687659439"><ele>87.87</ele><time>2026-04-25T14:07:38Z</time></trkpt><trkpt lat="59.0820791200" lon="30.0687616691"><ele>84.76</ele><time>2026-04-25T14:08:02Z</time></trkpt><trkpt lat="59.0820792876" lon="30.0687615015"><ele>87.33</ele><time>2026-04-25T14:08:16Z</time></trkpt><trkpt lat="59.0820791200" lon="30.0687582325"><ele>83.64</ele><time>2026-04-25T14:08:51Z</time></trkpt><trkpt lat="59.0820791200" lon="30.0687577296"><ele>82.04</ele><time>2026-04-25T14:08:54Z</time></trkpt><trkpt lat="59.0820788685" lon="30.0687568914"><ele>85.64</ele><time>2026-04-25T14:08:59Z</time></trkpt><trkpt lat="59.0820788685" lon="30.0687566400"><ele>86.60</ele><time>2026-04-25T14:09:01Z</time></trkpt><trkpt lat="59.0820787009" lon="30.0687557179"><ele>85.72</ele><time>2026-04-25T14:09:09Z</time></trkpt><trkpt lat="59.0820786171" lon="30.0687549636"><ele>88.74</ele><time>2026-04-25T14:09:14Z</time></trkpt><trkpt lat="59.0820785332" lon="30.0687548798"><ele>88.97</ele><time>2026-04-25T14:09:15Z</time></trkpt><trkpt lat="59.0820749290" lon="30.0687557179"><ele>87.33</ele><time>2026-04-25T14:09:55Z</time></trkpt><trkpt lat="59.0820704028" lon="30.0687621720"><ele>88.43</ele><time>2026-04-25T14:11:42Z</time></trkpt><trkpt lat="59.0820662957" lon="30.0687680393"><ele>88.88</ele><time>2026-04-25T14:13:38Z</time></trkpt><trkpt lat="59.0820673015" lon="30.0687834620"><ele>88.88</ele><time>2026-04-25T14:14:02Z</time></trkpt><trkpt lat="59.0820637811" lon="30.0687975436"><ele>88.88</ele><time>2026-04-25T14:14:22Z</time></trkpt><trkpt lat="59.0820620209" lon="30.0688212644"><ele>88.88</ele><time>2026-04-25T14:14:48Z</time></trkpt><trkpt lat="59.0820637811" lon="30.0688200071"><ele>88.88</ele><time>2026-04-25T14:15:05Z</time></trkpt><trkpt lat="59.0821017511" lon="30.0688065961"><ele>88.88</ele><time>2026-04-25T14:15:24Z</time></trkpt><trkpt lat="59.0821674652" lon="30.0687709730"><ele>88.88</ele><time>2026-04-25T14:15:36Z</time></trkpt><trkpt lat="59.0822107159" lon="30.0687839650"><ele>88.88</ele><time>2026-04-25T14:15:53Z</time></trkpt><trkpt lat="59.0822687186" lon="30.0688282214"><ele>88.88</ele><time>2026-04-25T14:16:09Z</time></trkpt><trkpt lat="59.0823103767" lon="30.0688727293"><ele>88.88</ele><time>2026-04-25T14:16:25Z</time></trkpt><trkpt lat="59.0823621769" lon="30.0688831229"><ele>88.88</ele><time>2026-04-25T14:16:44Z</time></trkpt><trkpt lat="59.0824369434" lon="30.0688345917"><ele>88.88</ele><time>2026-04-25T14:16:58Z</time></trkpt><trkpt lat="59.0825396217" lon="30.0687496830"><ele>88.74</ele><time>2026-04-25T14:17:13Z</time></trkpt><trkpt lat="59.0826242790" lon="30.0686824601"><ele>86.02</ele><time>2026-04-25T14:17:28Z</time></trkpt><trkpt lat="59.0826604050" lon="30.0686846394"><ele>85.09</ele><time>2026-04-25T14:17:35Z</time></trkpt><trkpt lat="59.0826814435" lon="30.0686818734"><ele>89.31</ele><time>2026-04-25T14:17:37Z</time></trkpt><trkpt lat="59.0827467386" lon="30.0686439872"><ele>89.61</ele><time>2026-04-25T14:17:46Z</time></trkpt><trkpt lat="59.0828035679" lon="30.0686190091"><ele>88.93</ele><time>2026-04-25T14:17:52Z</time></trkpt><trkpt lat="59.0829308052" lon="30.0685833022"><ele>88.63</ele><time>2026-04-25T14:18:07Z</time></trkpt><trkpt lat="59.0830804221" lon="30.0685000699"><ele>88.43</ele><time>2026-04-25T14:18:23Z</time></trkpt><trkpt lat="59.0831847768" lon="30.0684315898"><ele>88.54</ele><time>2026-04-25T14:18:36Z</time></trkpt><trkpt lat="59.0832246747" lon="30.0684151612"><ele>88.68</ele><time>2026-04-25T14:18:55Z</time></trkpt><trkpt lat="59.0832279436" lon="30.0683950447"><ele>88.68</ele><time>2026-04-25T14:19:22Z</time></trkpt><trkpt lat="59.0832917299" lon="30.0683654565"><ele>88.68</ele><time>2026-04-25T14:19:49Z</time></trkpt><trkpt lat="59.0834015328" lon="30.0682898518"><ele>88.68</ele><time>2026-04-25T14:20:07Z</time></trkpt><trkpt lat="59.0834818315" lon="30.0682170130"><ele>88.68</ele><time>2026-04-25T14:20:23Z</time></trkpt><trkpt lat="59.0835286863" lon="30.0681834016"><ele>88.68</ele><time>2026-04-25T14:20:43Z</time></trkpt><trkpt lat="59.0835685004" lon="30.0680789631"><ele>88.68</ele><time>2026-04-25T14:20:54Z</time></trkpt><trkpt lat="59.0837028623" lon="30.0679677352"><ele>88.68</ele><time>2026-04-25T14:21:09Z</time></trkpt><trkpt lat="59.0838060435" lon="30.0679575931"><ele>88.68</ele><time>2026-04-25T14:21:25Z</time></trkpt><trkpt lat="59.0839194506" lon="30.0679254904"><ele>88.68</ele><time>2026-04-25T14:21:38Z</time></trkpt><trkpt lat="59.0840639547" lon="30.0678824075"><ele>88.47</ele><time>2026-04-25T14:21:51Z</time></trkpt><trkpt lat="59.0841129050" lon="30.0678843353"><ele>88.14</ele><time>2026-04-25T14:22:06Z</time></trkpt><trkpt lat="59.0841428284" lon="30.0680423342"><ele>87.68</ele><time>2026-04-25T14:22:23Z</time></trkpt><trkpt lat="59.0841887612" lon="30.0682143308"><ele>87.86</ele><time>2026-04-25T14:22:38Z</time></trkpt><trkpt lat="59.0841456782" lon="30.0684411451"><ele>88.34</ele><time>2026-04-25T14:22:54Z</time></trkpt><trkpt lat="59.0842017531" lon="30.0686703902"><ele>88.96</ele><time>2026-04-25T14:23:12Z</time></trkpt><trkpt lat="59.0843330976" lon="30.0687503535"><ele>88.69</ele><time>2026-04-25T14:23:32Z</time></trkpt><trkpt lat="59.0843840595" lon="30.0687765889"><ele>85.38</ele><time>2026-04-25T14:23:38Z</time></trkpt><trkpt lat="59.0844043437" lon="30.0687722303"><ele>85.13</ele><time>2026-04-25T14:23:39Z</time></trkpt><trkpt lat="59.0844486840" lon="30.0687674526"><ele>88.15</ele><time>2026-04-25T14:23:49Z</time></trkpt><trkpt lat="59.0844504442" lon="30.0687805284"><ele>88.29</ele><time>2026-04-25T14:24:24Z</time></trkpt><trkpt lat="59.0844507795" lon="30.0687823724"><ele>87.28</ele><time>2026-04-25T14:24:34Z</time></trkpt><trkpt lat="59.0844501927" lon="30.0687834620"><ele>88.93</ele><time>2026-04-25T14:24:38Z</time></trkpt><trkpt lat="59.0844472591" lon="30.0687916763"><ele>89.02</ele><time>2026-04-25T14:25:08Z</time></trkpt><trkpt lat="59.0844605025" lon="30.0688388664"><ele>88.61</ele><time>2026-04-25T14:25:44Z</time></trkpt><trkpt lat="59.0845000651" lon="30.0689419638"><ele>88.64</ele><time>2026-04-25T14:26:06Z</time></trkpt><trkpt lat="59.0845066030" lon="30.0689289719"><ele>88.64</ele><time>2026-04-25T14:26:26Z</time></trkpt><trkpt lat="59.0845009033" lon="30.0689213444"><ele>88.64</ele><time>2026-04-25T14:26:47Z</time></trkpt><trkpt lat="59.0845351014" lon="30.0688959472"><ele>88.64</ele><time>2026-04-25T14:27:07Z</time></trkpt><trkpt lat="59.0846000612" lon="30.0687818695"><ele>88.64</ele><time>2026-04-25T14:27:24Z</time></trkpt><trkpt lat="59.0846580639" lon="30.0687040854"><ele>88.64</ele><time>2026-04-25T14:27:37Z</time></trkpt><trkpt lat="59.0847083554" lon="30.0686454959"><ele>88.64</ele><time>2026-04-25T14:27:55Z</time></trkpt><trkpt lat="59.0847468283" lon="30.0685609225"><ele>83.64</ele><time>2026-04-25T14:28:06Z</time></trkpt><trkpt lat="59.0847523604" lon="30.0685510319"><ele>85.81</ele><time>2026-04-25T14:28:07Z</time></trkpt><trkpt lat="59.0847584791" lon="30.0685289036"><ele>89.09</ele><time>2026-04-25T14:28:10Z</time></trkpt><trkpt lat="59.0847644303" lon="30.0685259700"><ele>88.74</ele><time>2026-04-25T14:28:11Z</time></trkpt><trkpt lat="59.0848711319" lon="30.0684349425"><ele>91.40</ele><time>2026-04-25T14:28:27Z</time></trkpt><trkpt lat="59.0850098524" lon="30.0683814660"><ele>89.88</ele><time>2026-04-25T14:28:44Z</time></trkpt><trkpt lat="59.0851281211" lon="30.0683279894"><ele>89.82</ele><time>2026-04-25T14:29:00Z</time></trkpt><trkpt lat="59.0852605551" lon="30.0682216231"><ele>89.85</ele><time>2026-04-25T14:29:15Z</time></trkpt><trkpt lat="59.0853609703" lon="30.0681411568"><ele>89.73</ele><time>2026-04-25T14:29:28Z</time></trkpt><trkpt lat="59.0854614694" lon="30.0680321921"><ele>89.72</ele><time>2026-04-25T14:29:45Z</time></trkpt><trkpt lat="59.0854825918" lon="30.0680188648"><ele>89.75</ele><time>2026-04-25T14:29:47Z</time></trkpt><trkpt lat="59.0856115054" lon="30.0679276697"><ele>89.88</ele><time>2026-04-25T14:30:02Z</time></trkpt><trkpt lat="59.0856159478" lon="30.0679250713"><ele>89.97</ele><time>2026-04-25T14:30:27Z</time></trkpt><trkpt lat="59.0856185462" lon="30.0679231435"><ele>86.85</ele><time>2026-04-25T14:30:57Z</time></trkpt><trkpt lat="59.0856467094" lon="30.0678979978"><ele>90.31</ele><time>2026-04-25T14:31:04Z</time></trkpt><trkpt lat="59.0857189614" lon="30.0678120833"><ele>90.15</ele><time>2026-04-25T14:31:18Z</time></trkpt><trkpt lat="59.0858073905" lon="30.0677730236"><ele>90.15</ele><time>2026-04-25T14:31:30Z</time></trkpt><trkpt lat="59.0859062970" lon="30.0678211357"><ele>90.15</ele><time>2026-04-25T14:31:45Z</time></trkpt><trkpt lat="59.0860492084" lon="30.0678022765"><ele>90.15</ele><time>2026-04-25T14:32:01Z</time></trkpt><trkpt lat="59.0861447621" lon="30.0677494705"><ele>90.15</ele><time>2026-04-25T14:32:10Z</time></trkpt><trkpt lat="59.0862926189" lon="30.0678113289"><ele>89.80</ele><time>2026-04-25T14:32:27Z</time></trkpt><trkpt lat="59.0863405634" lon="30.0678658113"><ele>89.31</ele><time>2026-04-25T14:32:39Z</time></trkpt><trkpt lat="59.0864215326" lon="30.0679100677"><ele>89.18</ele><time>2026-04-25T14:32:51Z</time></trkpt><trkpt lat="59.0864455048" lon="30.0679524802"><ele>88.83</ele><time>2026-04-25T14:33:01Z</time></trkpt><trkpt lat="59.0865176730" lon="30.0679964852"><ele>88.82</ele><time>2026-04-25T14:33:19Z</time></trkpt><trkpt lat="59.0865754243" lon="30.0680539850"><ele>89.31</ele><time>2026-04-25T14:33:38Z</time></trkpt><trkpt lat="59.0865988936" lon="30.0681324396"><ele>89.31</ele><time>2026-04-25T14:33:50Z</time></trkpt><trkpt lat="59.0866718162" lon="30.0682640355"><ele>89.31</ele><time>2026-04-25T14:34:05Z</time></trkpt><trkpt lat="59.0867721476" lon="30.0683539733"><ele>89.31</ele><time>2026-04-25T14:34:20Z</time></trkpt><trkpt lat="59.0868961159" lon="30.0683797058"><ele>89.31</ele><time>2026-04-25T14:34:33Z</time></trkpt><trkpt lat="59.0869834553" lon="30.0684149098"><ele>89.31</ele><time>2026-04-25T14:34:50Z</time></trkpt><trkpt lat="59.0870250296" lon="30.0683323480"><ele>89.31</ele><time>2026-04-25T14:35:07Z</time></trkpt><trkpt lat="59.0870842896" lon="30.0682863314"><ele>89.31</ele><time>2026-04-25T14:35:16Z</time></trkpt><trkpt lat="59.0871940088" lon="30.0682015903"><ele>89.31</ele><time>2026-04-25T14:35:33Z</time></trkpt><trkpt lat="59.0872260276" lon="30.0680914521"><ele>89.31</ele><time>2026-04-25T14:35:49Z</time></trkpt><trkpt lat="59.0872261114" lon="30.0680931285"><ele>89.31</ele><time>2026-04-25T14:36:42Z</time></trkpt><trkpt lat="59.0872315597" lon="30.0680823997"><ele>89.31</ele><time>2026-04-25T14:37:16Z</time></trkpt><trkpt lat="59.0873165522" lon="30.0680367183"><ele>89.31</ele><time>2026-04-25T14:37:37Z</time></trkpt><trkpt lat="59.0873976052" lon="30.0680208765"><ele>89.31</ele><time>2026-04-25T14:37:54Z</time></trkpt><trkpt lat="59.0874508303" lon="30.0679067150"><ele>89.31</ele><time>2026-04-25T14:38:12Z</time></trkpt><trkpt lat="59.0875382535" lon="30.0678779650"><ele>89.31</ele><time>2026-04-25T14:38:33Z</time></trkpt><trkpt lat="59.0875886288" lon="30.0678510591"><ele>85.56</ele><time>2026-04-25T14:38:42Z</time></trkpt><trkpt lat="59.0875829291" lon="30.0678411685"><ele>85.45</ele><time>2026-04-25T14:38:43Z</time></trkpt><trkpt lat="59.0875864495" lon="30.0678150170"><ele>89.75</ele><time>2026-04-25T14:38:45Z</time></trkpt><trkpt lat="59.0876005311" lon="30.0677692518"><ele>91.41</ele><time>2026-04-25T14:38:50Z</time></trkpt><trkpt lat="59.0876224078" lon="30.0676638074"><ele>89.63</ele><time>2026-04-25T14:39:13Z</time></trkpt><trkpt lat="59.0876252577" lon="30.0676012784"><ele>88.10</ele><time>2026-04-25T14:39:27Z</time></trkpt><trkpt lat="59.0876291972" lon="30.0675576925"><ele>91.08</ele><time>2026-04-25T14:39:32Z</time></trkpt><trkpt lat="59.0876580309" lon="30.0673244242"><ele>87.98</ele><time>2026-04-25T14:39:49Z</time></trkpt><trkpt lat="59.0877151117" lon="30.0672007911"><ele>87.72</ele><time>2026-04-25T14:40:01Z</time></trkpt><trkpt lat="59.0877607930" lon="30.0670981128"><ele>90.89</ele><time>2026-04-25T14:40:13Z</time></trkpt><trkpt lat="59.0877663251" lon="30.0670893118"><ele>92.68</ele><time>2026-04-25T14:40:16Z</time></trkpt><trkpt lat="59.0877981763" lon="30.0670665968"><ele>88.52</ele><time>2026-04-25T14:40:23Z</time></trkpt><trkpt lat="59.0878332127" lon="30.0670554489"><ele>88.10</ele><time>2026-04-25T14:40:30Z</time></trkpt><trkpt lat="59.0878990106" lon="30.0670889765"><ele>91.13</ele><time>2026-04-25T14:40:45Z</time></trkpt><trkpt lat="59.0879247431" lon="30.0671221688"><ele>91.10</ele><time>2026-04-25T14:40:50Z</time></trkpt><trkpt lat="59.0879682451" lon="30.0672080833"><ele>91.35</ele><time>2026-04-25T14:41:04Z</time></trkpt><trkpt lat="59.0879882779" lon="30.0672834367"><ele>92.40</ele><time>2026-04-25T14:41:18Z</time></trkpt><trkpt lat="59.0879886970" lon="30.0672952551"><ele>92.40</ele><time>2026-04-25T14:41:19Z</time></trkpt><trkpt lat="59.0880359709" lon="30.0674339756"><ele>92.40</ele><time>2026-04-25T14:41:37Z</time></trkpt><trkpt lat="59.0880396590" lon="30.0674785674"><ele>92.40</ele><time>2026-04-25T14:41:54Z</time></trkpt><trkpt lat="59.0880639665" lon="30.0674970075"><ele>92.40</ele><time>2026-04-25T14:42:11Z</time></trkpt><trkpt lat="59.0881026909" lon="30.0675261766"><ele>92.40</ele><time>2026-04-25T14:42:29Z</time></trkpt><trkpt lat="59.0881597716" lon="30.0675664097"><ele>92.40</ele><time>2026-04-25T14:42:44Z</time></trkpt><trkpt lat="59.0882351249" lon="30.0676091574"><ele>92.40</ele><time>2026-04-25T14:42:57Z</time></trkpt><trkpt lat="59.0882601030" lon="30.0676135998"><ele>92.40</ele><time>2026-04-25T14:43:00Z</time></trkpt><trkpt lat="59.0882966481" lon="30.0676171202"><ele>90.00</ele><time>2026-04-25T14:43:19Z</time></trkpt><trkpt lat="59.0882996656" lon="30.0676152762"><ele>89.72</ele><time>2026-04-25T14:43:23Z</time></trkpt><trkpt lat="59.0884310938" lon="30.0675744563"><ele>87.65</ele><time>2026-04-25T14:43:40Z</time></trkpt><trkpt lat="59.0884736739" lon="30.0674793217"><ele>91.03</ele><time>2026-04-25T14:43:53Z</time></trkpt><trkpt lat="59.0884745959" lon="30.0674767233"><ele>91.27</ele><time>2026-04-25T14:43:54Z</time></trkpt><trkpt lat="59.0884724166" lon="30.0674647372"><ele>90.47</ele><time>2026-04-25T14:44:23Z</time></trkpt><trkpt lat="59.0884713270" lon="30.0674615521"><ele>92.51</ele><time>2026-04-25T14:44:41Z</time></trkpt><trkpt lat="59.0884710755" lon="30.0674612168"><ele>90.36</ele><time>2026-04-25T14:44:45Z</time></trkpt><trkpt lat="59.0884743445" lon="30.0674773939"><ele>92.62</ele><time>2026-04-25T14:45:05Z</time></trkpt><trkpt lat="59.0885228757" lon="30.0674554333"><ele>90.63</ele><time>2026-04-25T14:45:22Z</time></trkpt><trkpt lat="59.0886103828" lon="30.0674883742"><ele>92.00</ele><time>2026-04-25T14:45:36Z</time></trkpt><trkpt lat="59.0887097921" lon="30.0675461255"><ele>90.98</ele><time>2026-04-25T14:45:52Z</time></trkpt><trkpt lat="59.0887274779" lon="30.0675535854"><ele>90.98</ele><time>2026-04-25T14:45:54Z</time></trkpt><trkpt lat="59.0887899231" lon="30.0676203892"><ele>89.55</ele><time>2026-04-25T14:46:06Z</time></trkpt><trkpt lat="59.0888608340" lon="30.0677103270"><ele>90.77</ele><time>2026-04-25T14:46:21Z</time></trkpt><trkpt lat="59.0888920985" lon="30.0677692518"><ele>91.65</ele><time>2026-04-25T14:46:37Z</time></trkpt><trkpt lat="59.0888503566" lon="30.0678395759"><ele>91.35</ele><time>2026-04-25T14:46:53Z</time></trkpt><trkpt lat="59.0888361912" lon="30.0679177791"><ele>91.40</ele><time>2026-04-25T14:47:12Z</time></trkpt><trkpt lat="59.0887842234" lon="30.0679770391"><ele>91.07</ele><time>2026-04-25T14:47:26Z</time></trkpt><trkpt lat="59.0887020808" lon="30.0680973195"><ele>91.17</ele><time>2026-04-25T14:47:39Z</time></trkpt><trkpt lat="59.0885986481" lon="30.0682185218"><ele>90.33</ele><time>2026-04-25T14:47:56Z</time></trkpt><trkpt lat="59.0884932876" lon="30.0683804601"><ele>90.21</ele><time>2026-04-25T14:48:15Z</time></trkpt><trkpt lat="59.0884792060" lon="30.0684039295"><ele>92.44</ele><time>2026-04-25T14:48:24Z</time></trkpt><trkpt lat="59.0884585027" lon="30.0684343558"><ele>91.02</ele><time>2026-04-25T14:48:44Z</time></trkpt><trkpt lat="59.0883858316" lon="30.0686186738"><ele>90.75</ele><time>2026-04-25T14:49:05Z</time></trkpt><trkpt lat="59.0883646253" lon="30.0686513633"><ele>90.64</ele><time>2026-04-25T14:49:08Z</time></trkpt><trkpt lat="59.0882356279" lon="30.0688295625"><ele>90.62</ele><time>2026-04-25T14:49:30Z</time></trkpt><trkpt lat="59.0881892759" lon="30.0688905828"><ele>90.65</ele><time>2026-04-25T14:49:35Z</time></trkpt><trkpt lat="59.0880250745" lon="30.0691318978"><ele>90.75</ele><time>2026-04-25T14:49:54Z</time></trkpt><trkpt lat="59.0879319515" lon="30.0692468975"><ele>91.28</ele><time>2026-04-25T14:50:11Z</time></trkpt><trkpt lat="59.0877699293" lon="30.0694453809"><ele>91.25</ele><time>2026-04-25T14:50:29Z</time></trkpt><trkpt lat="59.0877526626" lon="30.0694733765"><ele>91.00</ele><time>2026-04-25T14:50:59Z</time></trkpt><trkpt lat="59.0876248386" lon="30.0696578622"><ele>90.98</ele><time>2026-04-25T14:51:41Z</time></trkpt><trkpt lat="59.0873585455" lon="30.0700538233"><ele>90.31</ele><time>2026-04-25T14:52:09Z</time></trkpt><trkpt lat="59.0871637501" lon="30.0702741835"><ele>89.97</ele><time>2026-04-25T14:52:32Z</time></trkpt><trkpt lat="59.0870712139" lon="30.0704496168"><ele>90.61</ele><time>2026-04-25T14:52:58Z</time></trkpt><trkpt lat="59.0868848842" lon="30.0707670394"><ele>90.58</ele><time>2026-04-25T14:53:27Z</time></trkpt><trkpt lat="59.0868203435" lon="30.0708258804"><ele>90.28</ele><time>2026-04-25T14:53:38Z</time></trkpt><trkpt lat="59.0866630152" lon="30.0709783472"><ele>91.00</ele><time>2026-04-25T14:53:58Z</time></trkpt><trkpt lat="59.0866472572" lon="30.0710016489"><ele>91.00</ele><time>2026-04-25T14:54:00Z</time></trkpt><trkpt lat="59.0866211895" lon="30.0710454863"><ele>91.00</ele><time>2026-04-25T14:54:31Z</time></trkpt><trkpt lat="59.0865838062" lon="30.0711208396"><ele>91.00</ele><time>2026-04-25T14:54:57Z</time></trkpt><trkpt lat="59.0865734126" lon="30.0711350888"><ele>91.00</ele><time>2026-04-25T14:55:25Z</time></trkpt><trkpt lat="59.0865766816" lon="30.0711327419"><ele>91.00</ele><time>2026-04-25T14:55:42Z</time></trkpt><trkpt lat="59.0865351073" lon="30.0711950194"><ele>91.00</ele><time>2026-04-25T14:55:56Z</time></trkpt><trkpt lat="59.0865149908" lon="30.0712795090"><ele>91.00</ele><time>2026-04-25T14:56:11Z</time></trkpt><trkpt lat="59.0864915214" lon="30.0713148806"><ele>91.00</ele><time>2026-04-25T14:56:30Z</time></trkpt><trkpt lat="59.0864725783" lon="30.0713634957"><ele>91.00</ele><time>2026-04-25T14:56:43Z</time></trkpt><trkpt lat="59.0864583291" lon="30.0713759009"><ele>85.63</ele><time>2026-04-25T14:56:51Z</time></trkpt><trkpt lat="59.0864546411" lon="30.0713761523"><ele>85.83</ele><time>2026-04-25T14:56:52Z</time></trkpt><trkpt lat="59.0864462592" lon="30.0713724643"><ele>89.34</ele><time>2026-04-25T14:56:55Z</time></trkpt><trkpt lat="59.0864334349" lon="30.0713997055"><ele>91.87</ele><time>2026-04-25T14:57:00Z</time></trkpt><trkpt lat="59.0863782819" lon="30.0714453030"><ele>90.81</ele><time>2026-04-25T14:57:20Z</time></trkpt><trkpt lat="59.0863243025" lon="30.0714801718"><ele>90.76</ele><time>2026-04-25T14:57:31Z</time></trkpt><trkpt lat="59.0862916131" lon="30.0715199858"><ele>90.85</ele><time>2026-04-25T14:57:47Z</time></trkpt><trkpt lat="59.0862683114" lon="30.0715261884"><ele>90.26</ele><time>2026-04-25T14:58:07Z</time></trkpt><trkpt lat="59.0862629469" lon="30.0715183094"><ele>90.05</ele><time>2026-04-25T14:58:26Z</time></trkpt><trkpt lat="59.0862637851" lon="30.0715358276"><ele>90.11</ele><time>2026-04-25T14:58:44Z</time></trkpt><trkpt lat="59.0862621088" lon="30.0715520047"><ele>90.23</ele><time>2026-04-25T14:59:05Z</time></trkpt><trkpt lat="59.0862572473" lon="30.0715556927"><ele>90.23</ele><time>2026-04-25T14:59:26Z</time></trkpt><trkpt lat="59.0862398967" lon="30.0715615600"><ele>90.23</ele><time>2026-04-25T14:59:48Z</time></trkpt><trkpt lat="59.0862445068" lon="30.0715514179"><ele>90.23</ele><time>2026-04-25T15:00:00Z</time></trkpt><trkpt lat="59.0862352867" lon="30.0716291182"><ele>90.23</ele><time>2026-04-25T15:00:15Z</time></trkpt><trkpt lat="59.0862150025" lon="30.0716569461"><ele>90.23</ele><time>2026-04-25T15:00:29Z</time></trkpt><trkpt lat="59.0862113982" lon="30.0716538448"><ele>90.23</ele><time>2026-04-25T15:01:00Z</time></trkpt><trkpt lat="59.0862157568" lon="30.0716602150"><ele>90.23</ele><time>2026-04-25T15:01:25Z</time></trkpt><trkpt lat="59.0861730091" lon="30.0717399269"><ele>90.23</ele><time>2026-04-25T15:01:49Z</time></trkpt><trkpt lat="59.0861594304" lon="30.0717450399"><ele>90.23</ele><time>2026-04-25T15:02:21Z</time></trkpt><trkpt lat="59.0861564968" lon="30.0717489794"><ele>90.23</ele><time>2026-04-25T15:03:14Z</time></trkpt><trkpt lat="59.0861527249" lon="30.0717545953"><ele>90.23</ele><time>2026-04-25T15:03:59Z</time></trkpt><trkpt lat="59.0861565806" lon="30.0717551820"><ele>90.23</ele><time>2026-04-25T15:04:29Z</time></trkpt><trkpt lat="59.0861612745" lon="30.0717591215"><ele>90.23</ele><time>2026-04-25T15:05:01Z</time></trkpt><trkpt lat="59.0861551557" lon="30.0717583671"><ele>90.23</ele><time>2026-04-25T15:05:26Z</time></trkpt><trkpt lat="59.0861056186" lon="30.0717772264"><ele>90.23</ele><time>2026-04-25T15:05:59Z</time></trkpt><trkpt lat="59.0860934649" lon="30.0717692636"><ele>90.23</ele><time>2026-04-25T15:06:23Z</time></trkpt><trkpt lat="59.0860858373" lon="30.0717660785"><ele>90.23</ele><time>2026-04-25T15:06:44Z</time></trkpt><trkpt lat="59.0860808920" lon="30.0717615522"><ele>90.23</ele><time>2026-04-25T15:07:09Z</time></trkpt><trkpt lat="59.0860601049" lon="30.0717599597"><ele>90.23</ele><time>2026-04-25T15:07:30Z</time></trkpt><trkpt lat="59.0860570874" lon="30.0717689283"><ele>90.23</ele><time>2026-04-25T15:07:51Z</time></trkpt><trkpt lat="59.0860336181" lon="30.0717297848"><ele>90.23</ele><time>2026-04-25T15:08:14Z</time></trkpt><trkpt lat="59.0859584324" lon="30.0716400985"><ele>90.23</ele><time>2026-04-25T15:08:36Z</time></trkpt><trkpt lat="59.0859146789" lon="30.0716143660"><ele>90.23</ele><time>2026-04-25T15:08:53Z</time></trkpt><trkpt lat="59.0858011879" lon="30.0715534296"><ele>90.23</ele><time>2026-04-25T15:09:09Z</time></trkpt><trkpt lat="59.0857334621" lon="30.0714728795"><ele>90.23</ele><time>2026-04-25T15:09:25Z</time></trkpt><trkpt lat="59.0857256670" lon="30.0714698620"><ele>90.23</ele><time>2026-04-25T15:09:48Z</time></trkpt><trkpt lat="59.0857165307" lon="30.0714674313"><ele>90.23</ele><time>2026-04-25T15:10:52Z</time></trkpt><trkpt lat="59.0856799856" lon="30.0714690238"><ele>90.23</ele><time>2026-04-25T15:11:21Z</time></trkpt><trkpt lat="59.0854394250" lon="30.0716106780"><ele>88.77</ele><time>2026-04-25T15:11:50Z</time></trkpt><trkpt lat="59.0854234155" lon="30.0716226641"><ele>92.27</ele><time>2026-04-25T15:11:54Z</time></trkpt><trkpt lat="59.0854213201" lon="30.0716399308"><ele>93.91</ele><time>2026-04-25T15:11:57Z</time></trkpt><trkpt lat="59.0854281932" lon="30.0716714468"><ele>92.15</ele><time>2026-04-25T15:12:02Z</time></trkpt><trkpt lat="59.0853970964" lon="30.0716975145"><ele>94.23</ele><time>2026-04-25T15:12:08Z</time></trkpt><trkpt lat="59.0853410214" lon="30.0717556011"><ele>90.95</ele><time>2026-04-25T15:12:26Z</time></trkpt><trkpt lat="59.0853307955" lon="30.0717647374"><ele>90.33</ele><time>2026-04-25T15:12:28Z</time></trkpt><trkpt lat="59.0852779895" lon="30.0719131809"><ele>89.69</ele><time>2026-04-25T15:12:47Z</time></trkpt><trkpt lat="59.0852780733" lon="30.0719249155"><ele>94.45</ele><time>2026-04-25T15:12:55Z</time></trkpt><trkpt lat="59.0852795821" lon="30.0719244126"><ele>94.45</ele><time>2026-04-25T15:12:56Z</time></trkpt><trkpt lat="59.0852142032" lon="30.0719497260"><ele>94.45</ele><time>2026-04-25T15:13:13Z</time></trkpt><trkpt lat="59.0851582121" lon="30.0719520729"><ele>94.45</ele><time>2026-04-25T15:13:36Z</time></trkpt><trkpt lat="59.0851147100" lon="30.0719373208"><ele>94.45</ele><time>2026-04-25T15:13:54Z</time></trkpt><trkpt lat="59.0851050708" lon="30.0719338004"><ele>90.45</ele><time>2026-04-25T15:13:56Z</time></trkpt><trkpt lat="59.0851018019" lon="30.0719325431"><ele>91.30</ele><time>2026-04-25T15:13:57Z</time></trkpt><trkpt lat="59.0849976148" lon="30.0719807390"><ele>91.08</ele><time>2026-04-25T15:14:18Z</time></trkpt><trkpt lat="59.0849237703" lon="30.0720394123"><ele>94.17</ele><time>2026-04-25T15:14:31Z</time></trkpt><trkpt lat="59.0848538652" lon="30.0721949805"><ele>93.83</ele><time>2026-04-25T15:14:52Z</time></trkpt><trkpt lat="59.0848364308" lon="30.0722321123"><ele>92.72</ele><time>2026-04-25T15:15:09Z</time></trkpt><trkpt lat="59.0847725607" lon="30.0724184420"><ele>92.04</ele><time>2026-04-25T15:15:25Z</time></trkpt><trkpt lat="59.0847723093" lon="30.0724188611"><ele>90.45</ele><time>2026-04-25T15:15:28Z</time></trkpt><trkpt lat="59.0847615805" lon="30.0724231359"><ele>94.76</ele><time>2026-04-25T15:15:40Z</time></trkpt><trkpt lat="59.0847135521" lon="30.0724208727"><ele>91.62</ele><time>2026-04-25T15:15:57Z</time></trkpt><trkpt lat="59.0846487600" lon="30.0723338686"><ele>91.60</ele><time>2026-04-25T15:16:15Z</time></trkpt><trkpt lat="59.0846095327" lon="30.0722535700"><ele>93.21</ele><time>2026-04-25T15:16:23Z</time></trkpt><trkpt lat="59.0845881589" lon="30.0721039530"><ele>92.80</ele><time>2026-04-25T15:16:39Z</time></trkpt><trkpt lat="59.0845528711" lon="30.0720249955"><ele>92.33</ele><time>2026-04-25T15:16:48Z</time></trkpt><trkpt lat="59.0845114645" lon="30.0720013585"><ele>95.47</ele><time>2026-04-25T15:16:56Z</time></trkpt><trkpt lat="59.0845061839" lon="30.0719990116"><ele>92.32</ele><time>2026-04-25T15:16:59Z</time></trkpt><trkpt lat="59.0845058486" lon="30.0719932280"><ele>92.32</ele><time>2026-04-25T15:17:00Z</time></trkpt><trkpt lat="59.0845015738" lon="30.0719857682"><ele>92.32</ele><time>2026-04-25T15:17:16Z</time></trkpt><trkpt lat="59.0845043398" lon="30.0719625503"><ele>92.32</ele><time>2026-04-25T15:17:45Z</time></trkpt><trkpt lat="59.0844980534" lon="30.0719358120"><ele>92.32</ele><time>2026-04-25T15:18:15Z</time></trkpt><trkpt lat="59.0844578203" lon="30.0719683338"><ele>92.32</ele><time>2026-04-25T15:18:44Z</time></trkpt><trkpt lat="59.0843741689" lon="30.0720183738"><ele>92.32</ele><time>2026-04-25T15:19:00Z</time></trkpt><trkpt lat="59.0843698103" lon="30.0720210560"><ele>96.12</ele><time>2026-04-25T15:19:01Z</time></trkpt><trkpt lat="59.0843616799" lon="30.0720270071"><ele>95.91</ele><time>2026-04-25T15:19:02Z</time></trkpt><trkpt lat="59.0842759330" lon="30.0720872730"><ele>94.07</ele><time>2026-04-25T15:19:22Z</time></trkpt><trkpt lat="59.0842476021" lon="30.0720635522"><ele>93.12</ele><time>2026-04-25T15:19:44Z</time></trkpt><trkpt lat="59.0842310060" lon="30.0720662344"><ele>89.88</ele><time>2026-04-25T15:19:53Z</time></trkpt><trkpt lat="59.0842264798" lon="30.0720635522"><ele>91.60</ele><time>2026-04-25T15:20:01Z</time></trkpt><trkpt lat="59.0841569100" lon="30.0720296893"><ele>92.98</ele><time>2026-04-25T15:20:25Z</time></trkpt><trkpt lat="59.0841482766" lon="30.0720094889"><ele>94.47</ele><time>2026-04-25T15:20:46Z</time></trkpt><trkpt lat="59.0841541439" lon="30.0719962455"><ele>92.92</ele><time>2026-04-25T15:20:54Z</time></trkpt><trkpt lat="59.0841461811" lon="30.0719667412"><ele>91.93</ele><time>2026-04-25T15:21:15Z</time></trkpt><trkpt lat="59.0841464326" lon="30.0719669089"><ele>91.69</ele><time>2026-04-25T15:21:16Z</time></trkpt><trkpt lat="59.0841399785" lon="30.0719853491"><ele>91.35</ele><time>2026-04-25T15:21:41Z</time></trkpt><trkpt lat="59.0841071215" lon="30.0719944853"><ele>94.10</ele><time>2026-04-25T15:22:06Z</time></trkpt><trkpt lat="59.0840898547" lon="30.0720014423"><ele>94.10</ele><time>2026-04-25T15:22:29Z</time></trkpt><trkpt lat="59.0840756893" lon="30.0720348861"><ele>94.10</ele><time>2026-04-25T15:22:52Z</time></trkpt><trkpt lat="59.0840536449" lon="30.0720484648"><ele>92.14</ele><time>2026-04-25T15:23:06Z</time></trkpt><trkpt lat="59.0840325225" lon="30.0720835850"><ele>94.10</ele><time>2026-04-25T15:23:27Z</time></trkpt><trkpt lat="59.0840108972" lon="30.0721408334"><ele>92.84</ele><time>2026-04-25T15:23:44Z</time></trkpt><trkpt lat="59.0839632042" lon="30.0722249039"><ele>93.29</ele><time>2026-04-25T15:24:11Z</time></trkpt><trkpt lat="59.0838825703" lon="30.0723062083"><ele>92.42</ele><time>2026-04-25T15:24:33Z</time></trkpt><trkpt lat="59.0838727634" lon="30.0723071303"><ele>92.36</ele><time>2026-04-25T15:24:34Z</time></trkpt><trkpt lat="59.0837813169" lon="30.0723137520"><ele>96.07</ele><time>2026-04-25T15:24:43Z</time></trkpt><trkpt lat="59.0837805625" lon="30.0723135006"><ele>96.21</ele><time>2026-04-25T15:24:44Z</time></trkpt><trkpt lat="59.0837802272" lon="30.0723129138"><ele>92.98</ele><time>2026-04-25T15:24:49Z</time></trkpt><trkpt lat="59.0837802272" lon="30.0723125786"><ele>91.47</ele><time>2026-04-25T15:24:52Z</time></trkpt><trkpt lat="59.0837796405" lon="30.0723109860"><ele>93.72</ele><time>2026-04-25T15:24:55Z</time></trkpt><trkpt lat="59.0837777965" lon="30.0723097287"><ele>92.69</ele><time>2026-04-25T15:25:30Z</time></trkpt><trkpt lat="59.0837612003" lon="30.0723171048"><ele>88.96</ele><time>2026-04-25T15:25:47Z</time></trkpt><trkpt lat="59.0837606136" lon="30.0723176915"><ele>88.96</ele><time>2026-04-25T15:25:48Z</time></trkpt><trkpt lat="59.0837609489" lon="30.0723114889"><ele>91.71</ele><time>2026-04-25T15:25:54Z</time></trkpt><trkpt lat="59.0837264992" lon="30.0723728444"><ele>95.00</ele><time>2026-04-25T15:26:08Z</time></trkpt><trkpt lat="59.0835439414" lon="30.0726265647"><ele>91.94</ele><time>2026-04-25T15:26:41Z</time></trkpt><trkpt lat="59.0835452825" lon="30.0726098847"><ele>96.31</ele><time>2026-04-25T15:26:44Z</time></trkpt><trkpt lat="59.0835215617" lon="30.0726111419"><ele>98.64</ele><time>2026-04-25T15:26:47Z</time></trkpt><trkpt lat="59.0834924765" lon="30.0726250559"><ele>95.32</ele><time>2026-04-25T15:26:53Z</time></trkpt><trkpt lat="59.0834181290" lon="30.0726189371"><ele>94.42</ele><time>2026-04-25T15:27:02Z</time></trkpt><trkpt lat="59.0832871199" lon="30.0726410653"><ele>93.85</ele><time>2026-04-25T15:27:18Z</time></trkpt><trkpt lat="59.0831595473" lon="30.0727054384"><ele>95.19</ele><time>2026-04-25T15:27:36Z</time></trkpt><trkpt lat="59.0829193220" lon="30.0728091225"><ele>93.40</ele><time>2026-04-25T15:28:04Z</time></trkpt><trkpt lat="59.0828075074" lon="30.0727893412"><ele>96.41</ele><time>2026-04-25T15:28:27Z</time></trkpt><trkpt lat="59.0827681124" lon="30.0728108827"><ele>95.45</ele><time>2026-04-25T15:28:35Z</time></trkpt><trkpt lat="59.0827366803" lon="30.0727885868"><ele>96.19</ele><time>2026-04-25T15:28:38Z</time></trkpt><trkpt lat="59.0826909989" lon="30.0728225335"><ele>93.27</ele><time>2026-04-25T15:28:47Z</time></trkpt><trkpt lat="59.0825941879" lon="30.0729141477"><ele>96.97</ele><time>2026-04-25T15:28:58Z</time></trkpt><trkpt lat="59.0825679526" lon="30.0729329232"><ele>97.85</ele><time>2026-04-25T15:29:00Z</time></trkpt><trkpt lat="59.0825430583" lon="30.0729630981"><ele>94.54</ele><time>2026-04-25T15:29:05Z</time></trkpt><trkpt lat="59.0825407952" lon="30.0729798619"><ele>92.56</ele><time>2026-04-25T15:29:07Z</time></trkpt><trkpt lat="59.0825400408" lon="30.0729833823"><ele>96.23</ele><time>2026-04-25T15:29:12Z</time></trkpt><trkpt lat="59.0825402085" lon="30.0729856454"><ele>97.54</ele><time>2026-04-25T15:29:15Z</time></trkpt><trkpt lat="59.0825354308" lon="30.0729833823"><ele>94.21</ele><time>2026-04-25T15:29:30Z</time></trkpt><trkpt lat="59.0825355984" lon="30.0729801133"><ele>97.38</ele><time>2026-04-25T15:29:41Z</time></trkpt><trkpt lat="59.0825350117" lon="30.0729791913"><ele>97.60</ele><time>2026-04-25T15:29:42Z</time></trkpt><trkpt lat="59.0825372748" lon="30.0729832985"><ele>94.46</ele><time>2026-04-25T15:29:46Z</time></trkpt><trkpt lat="59.0825221874" lon="30.0730269682"><ele>96.62</ele><time>2026-04-25T15:30:04Z</time></trkpt><trkpt lat="59.0824318305" lon="30.0731024053"><ele>93.57</ele><time>2026-04-25T15:30:25Z</time></trkpt><trkpt lat="59.0823993925" lon="30.0731547922"><ele>96.44</ele><time>2026-04-25T15:30:32Z</time></trkpt><trkpt lat="59.0823539626" lon="30.0731950253"><ele>95.58</ele><time>2026-04-25T15:30:52Z</time></trkpt><trkpt lat="59.0823365282" lon="30.0732029881"><ele>95.61</ele><time>2026-04-25T15:30:57Z</time></trkpt><trkpt lat="59.0821227059" lon="30.0732431374"><ele>96.40</ele><time>2026-04-25T15:31:16Z</time></trkpt><trkpt lat="59.0821135696" lon="30.0732328277"><ele>96.33</ele><time>2026-04-25T15:31:37Z</time></trkpt><trkpt lat="59.0820945427" lon="30.0732321572"><ele>95.67</ele><time>2026-04-25T15:32:00Z</time></trkpt><trkpt lat="59.0820557345" lon="30.0732362643"><ele>95.19</ele><time>2026-04-25T15:32:23Z</time></trkpt><trkpt lat="59.0819911100" lon="30.0732538663"><ele>96.32</ele><time>2026-04-25T15:32:34Z</time></trkpt><trkpt lat="59.0819744300" lon="30.0732635055"><ele>96.22</ele><time>2026-04-25T15:32:36Z</time></trkpt><trkpt lat="59.0819113143" lon="30.0732486695"><ele>97.56</ele><time>2026-04-25T15:32:47Z</time></trkpt><trkpt lat="59.0818931255" lon="30.0732319057"><ele>96.74</ele><time>2026-04-25T15:32:49Z</time></trkpt><trkpt lat="59.0817996673" lon="30.0732068438"><ele>96.52</ele><time>2026-04-25T15:33:05Z</time></trkpt><trkpt lat="59.0817810595" lon="30.0732014794"><ele>97.19</ele><time>2026-04-25T15:33:07Z</time></trkpt><trkpt lat="59.0817321092" lon="30.0731900800"><ele>96.30</ele><time>2026-04-25T15:33:30Z</time></trkpt><trkpt lat="59.0815194603" lon="30.0731491763"><ele>96.11</ele><time>2026-04-25T15:34:00Z</time></trkpt><trkpt lat="59.0814870223" lon="30.0731402915"><ele>96.62</ele><time>2026-04-25T15:34:06Z</time></trkpt><trkpt lat="59.0814264212" lon="30.0730991364"><ele>96.32</ele><time>2026-04-25T15:34:12Z</time></trkpt><trkpt lat="59.0813828353" lon="30.0730345119"><ele>96.56</ele><time>2026-04-25T15:34:18Z</time></trkpt><trkpt lat="59.0813529957" lon="30.0729941949"><ele>96.10</ele><time>2026-04-25T15:34:23Z</time></trkpt><trkpt lat="59.0813223179" lon="30.0729439873"><ele>96.52</ele><time>2026-04-25T15:34:28Z</time></trkpt><trkpt lat="59.0813092422" lon="30.0729226973"><ele>96.50</ele><time>2026-04-25T15:34:30Z</time></trkpt><trkpt lat="59.0812742896" lon="30.0728560612"><ele>96.88</ele><time>2026-04-25T15:34:36Z</time></trkpt><trkpt lat="59.0811941586" lon="30.0728214439"><ele>93.62</ele><time>2026-04-25T15:35:04Z</time></trkpt><trkpt lat="59.0811968409" lon="30.0728166662"><ele>96.93</ele><time>2026-04-25T15:35:10Z</time></trkpt><trkpt lat="59.0811943263" lon="30.0728120562"><ele>98.63</ele><time>2026-04-25T15:35:13Z</time></trkpt><trkpt lat="59.0811916441" lon="30.0728092901"><ele>97.86</ele><time>2026-04-25T15:35:48Z</time></trkpt><trkpt lat="59.0811271872" lon="30.0727910176"><ele>97.86</ele><time>2026-04-25T15:36:11Z</time></trkpt><trkpt lat="59.0809545200" lon="30.0729014073"><ele>97.86</ele><time>2026-04-25T15:36:34Z</time></trkpt><trkpt lat="59.0808153804" lon="30.0728870742"><ele>96.47</ele><time>2026-04-25T15:36:52Z</time></trkpt><trkpt lat="59.0807434637" lon="30.0729343481"><ele>97.42</ele><time>2026-04-25T15:37:02Z</time></trkpt><trkpt lat="59.0806880593" lon="30.0729565602"><ele>97.23</ele><time>2026-04-25T15:37:10Z</time></trkpt><trkpt lat="59.0806184895" lon="30.0729754195"><ele>96.07</ele><time>2026-04-25T15:37:24Z</time></trkpt><trkpt lat="59.0805940144" lon="30.0729939435"><ele>99.99</ele><time>2026-04-25T15:37:28Z</time></trkpt><trkpt lat="59.0805267915" lon="30.0730075222"><ele>99.11</ele><time>2026-04-25T15:37:41Z</time></trkpt><trkpt lat="59.0805052500" lon="30.0730013195"><ele>98.98</ele><time>2026-04-25T15:37:43Z</time></trkpt><trkpt lat="59.0803088620" lon="30.0730470009"><ele>98.22</ele><time>2026-04-25T15:38:09Z</time></trkpt><trkpt lat="59.0802692994" lon="30.0730431452"><ele>98.02</ele><time>2026-04-25T15:38:16Z</time></trkpt><trkpt lat="59.0802307427" lon="30.0730489288"><ele>97.65</ele><time>2026-04-25T15:38:23Z</time></trkpt><trkpt lat="59.0802074410" lon="30.0730441511"><ele>94.72</ele><time>2026-04-25T15:38:29Z</time></trkpt><trkpt lat="59.0802070219" lon="30.0730449054"><ele>98.69</ele><time>2026-04-25T15:38:38Z</time></trkpt><trkpt lat="59.0802009869" lon="30.0730520301"><ele>100.23</ele><time>2026-04-25T15:38:41Z</time></trkpt><trkpt lat="59.0801730752" lon="30.0732422993"><ele>98.31</ele><time>2026-04-25T15:39:01Z</time></trkpt><trkpt lat="59.0801203530" lon="30.0733372662"><ele>97.09</ele><time>2026-04-25T15:39:19Z</time></trkpt><trkpt lat="59.0800648648" lon="30.0733767450"><ele>97.62</ele><time>2026-04-25T15:39:54Z</time></trkpt><trkpt lat="59.0800576564" lon="30.0733974483"><ele>97.28</ele><time>2026-04-25T15:40:28Z</time></trkpt><trkpt lat="59.0800369531" lon="30.0734118652"><ele>98.90</ele><time>2026-04-25T15:40:50Z</time></trkpt><trkpt lat="59.0799143258" lon="30.0734469015"><ele>98.67</ele><time>2026-04-25T15:41:13Z</time></trkpt><trkpt lat="59.0798075404" lon="30.0734292157"><ele>98.53</ele><time>2026-04-25T15:41:28Z</time></trkpt><trkpt lat="59.0797046944" lon="30.0733996276"><ele>98.25</ele><time>2026-04-25T15:41:40Z</time></trkpt><trkpt lat="59.0796532296" lon="30.0733783375"><ele>97.16</ele><time>2026-04-25T15:41:50Z</time></trkpt><trkpt lat="59.0796333645" lon="30.0734116975"><ele>100.52</ele><time>2026-04-25T15:41:56Z</time></trkpt><trkpt lat="59.0796282515" lon="30.0734125357"><ele>100.79</ele><time>2026-04-25T15:41:57Z</time></trkpt><trkpt lat="59.0795680694" lon="30.0734660123"><ele>97.65</ele><time>2026-04-25T15:42:07Z</time></trkpt><trkpt lat="59.0794823226" lon="30.0734775793"><ele>100.67</ele><time>2026-04-25T15:42:23Z</time></trkpt><trkpt lat="59.0794389043" lon="30.0735094305"><ele>97.44</ele><time>2026-04-25T15:42:31Z</time></trkpt><trkpt lat="59.0794316120" lon="30.0735056587"><ele>97.15</ele><time>2026-04-25T15:42:32Z</time></trkpt><trkpt lat="59.0794137586" lon="30.0735018030"><ele>96.73</ele><time>2026-04-25T15:42:35Z</time></trkpt><trkpt lat="59.0793354716" lon="30.0735197403"><ele>99.92</ele><time>2026-04-25T15:42:53Z</time></trkpt><trkpt lat="59.0793237370" lon="30.0735390186"><ele>98.21</ele><time>2026-04-25T15:43:00Z</time></trkpt><trkpt lat="59.0792964119" lon="30.0735623203"><ele>99.99</ele><time>2026-04-25T15:43:08Z</time></trkpt><trkpt lat="59.0791788138" lon="30.0737034716"><ele>98.96</ele><time>2026-04-25T15:43:28Z</time></trkpt><trkpt lat="59.0790379979" lon="30.0738131907"><ele>101.83</ele><time>2026-04-25T15:43:57Z</time></trkpt><trkpt lat="59.0790008660" lon="30.0738727022"><ele>98.94</ele><time>2026-04-25T15:44:05Z</time></trkpt><trkpt lat="59.0789160412" lon="30.0739771407"><ele>98.28</ele><time>2026-04-25T15:44:32Z</time></trkpt><trkpt lat="59.0789239202" lon="30.0739824213"><ele>99.94</ele><time>2026-04-25T15:44:54Z</time></trkpt><trkpt lat="59.0789240878" lon="30.0739825051"><ele>101.10</ele><time>2026-04-25T15:45:33Z</time></trkpt><trkpt lat="59.0789201483" lon="30.0740551762"><ele>97.04</ele><time>2026-04-25T15:45:45Z</time></trkpt><trkpt lat="59.0789706912" lon="30.0744954776"><ele>98.90</ele><time>2026-04-25T15:46:17Z</time></trkpt><trkpt lat="59.0789768938" lon="30.0745476969"><ele>98.92</ele><time>2026-04-25T15:46:19Z</time></trkpt><trkpt lat="59.0789815038" lon="30.0746444240"><ele>97.08</ele><time>2026-04-25T15:46:44Z</time></trkpt><trkpt lat="59.0789828449" lon="30.0746725034"><ele>97.10</ele><time>2026-04-25T15:46:47Z</time></trkpt><trkpt lat="59.0790329687" lon="30.0748994853"><ele>100.57</ele><time>2026-04-25T15:47:04Z</time></trkpt><trkpt lat="59.0790951625" lon="30.0752056763"><ele>98.24</ele><time>2026-04-25T15:47:24Z</time></trkpt><trkpt lat="59.0790963359" lon="30.0754278805"><ele>100.89</ele><time>2026-04-25T15:47:33Z</time></trkpt><trkpt lat="59.0791185480" lon="30.0754664373"><ele>98.71</ele><time>2026-04-25T15:47:38Z</time></trkpt><trkpt lat="59.0792474616" lon="30.0758125260"><ele>98.50</ele><time>2026-04-25T15:48:03Z</time></trkpt><trkpt lat="59.0792558435" lon="30.0762431882"><ele>98.50</ele><time>2026-04-25T15:48:21Z</time></trkpt><trkpt lat="59.0792534128" lon="30.0764943101"><ele>98.50</ele><time>2026-04-25T15:48:37Z</time></trkpt><trkpt lat="59.0792536642" lon="30.0765605271"><ele>98.50</ele><time>2026-04-25T15:48:56Z</time></trkpt><trkpt lat="59.0793149360" lon="30.0766162667"><ele>98.50</ele><time>2026-04-25T15:49:16Z</time></trkpt><trkpt lat="59.0793714300" lon="30.0766591821"><ele>98.50</ele><time>2026-04-25T15:49:33Z</time></trkpt><trkpt lat="59.0793850925" lon="30.0767307635"><ele>98.50</ele><time>2026-04-25T15:49:55Z</time></trkpt><trkpt lat="59.0793847572" lon="30.0767455157"><ele>98.50</ele><time>2026-04-25T15:50:35Z</time></trkpt><trkpt lat="59.0794124175" lon="30.0766909495"><ele>98.50</ele><time>2026-04-25T15:51:08Z</time></trkpt><trkpt lat="59.0794888604" lon="30.0766387302"><ele>98.50</ele><time>2026-04-25T15:51:24Z</time></trkpt><trkpt lat="59.0795670636" lon="30.0765469484"><ele>98.50</ele><time>2026-04-25T15:51:39Z</time></trkpt><trkpt lat="59.0797010064" lon="30.0765394885"><ele>98.50</ele><time>2026-04-25T15:51:59Z</time></trkpt><trkpt lat="59.0797813050" lon="30.0765695795"><ele>98.50</ele><time>2026-04-25T15:52:36Z</time></trkpt><trkpt lat="59.0798126534" lon="30.0765642989"><ele>98.50</ele><time>2026-04-25T15:53:05Z</time></trkpt><trkpt lat="59.0798617713" lon="30.0764816534"><ele>98.50</ele><time>2026-04-25T15:53:22Z</time></trkpt><trkpt lat="59.0799674671" lon="30.0763694197"><ele>98.50</ele><time>2026-04-25T15:53:41Z</time></trkpt><trkpt lat="59.0801107977" lon="30.0763663184"><ele>101.68</ele><time>2026-04-25T15:53:59Z</time></trkpt><trkpt lat="59.0801163297" lon="30.0763688330"><ele>101.62</ele><time>2026-04-25T15:54:00Z</time></trkpt><trkpt lat="59.0801794454" lon="30.0764137600"><ele>98.11</ele><time>2026-04-25T15:54:09Z</time></trkpt><trkpt lat="59.0802287310" lon="30.0764352176"><ele>98.83</ele><time>2026-04-25T15:54:23Z</time></trkpt><trkpt lat="59.0803449880" lon="30.0763473753"><ele>98.04</ele><time>2026-04-25T15:54:38Z</time></trkpt><trkpt lat="59.0804588143" lon="30.0763902906"><ele>100.83</ele><time>2026-04-25T15:54:51Z</time></trkpt><trkpt lat="59.0804671962" lon="30.0764168613"><ele>100.98</ele><time>2026-04-25T15:54:53Z</time></trkpt><trkpt lat="59.0806088503" lon="30.0765901152"><ele>99.20</ele><time>2026-04-25T15:55:14Z</time></trkpt><trkpt lat="59.0807436313" lon="30.0765411649"><ele>99.02</ele><time>2026-04-25T15:55:30Z</time></trkpt><trkpt lat="59.0807801764" lon="30.0765178632"><ele>95.12</ele><time>2026-04-25T15:55:36Z</time></trkpt><trkpt lat="59.0807805117" lon="30.0765060447"><ele>95.00</ele><time>2026-04-25T15:55:37Z</time></trkpt><trkpt lat="59.0807891451" lon="30.0764596090"><ele>98.51</ele><time>2026-04-25T15:55:42Z</time></trkpt><trkpt lat="59.0807873849" lon="30.0764574297"><ele>99.15</ele><time>2026-04-25T15:55:44Z</time></trkpt><trkpt lat="59.0807859600" lon="30.0764322840"><ele>98.01</ele><time>2026-04-25T15:56:05Z</time></trkpt><trkpt lat="59.0807905700" lon="30.0764266681"><ele>97.28</ele><time>2026-04-25T15:56:07Z</time></trkpt><trkpt lat="59.0808336530" lon="30.0762389973"><ele>98.80</ele><time>2026-04-25T15:56:25Z</time></trkpt><trkpt lat="59.0808243491" lon="30.0761807431"><ele>101.55</ele><time>2026-04-25T15:56:40Z</time></trkpt><trkpt lat="59.0808242653" lon="30.0761800725"><ele>101.79</ele><time>2026-04-25T15:56:41Z</time></trkpt><trkpt lat="59.0808242653" lon="30.0761752110"><ele>102.05</ele><time>2026-04-25T15:56:51Z</time></trkpt><trkpt lat="59.0808260255" lon="30.0761563517"><ele>99.62</ele><time>2026-04-25T15:57:16Z</time></trkpt><trkpt lat="59.0808709525" lon="30.0761457067"><ele>98.98</ele><time>2026-04-25T15:58:10Z</time></trkpt><trkpt lat="59.0809094254" lon="30.0760971755"><ele>95.91</ele><time>2026-04-25T15:58:17Z</time></trkpt><trkpt lat="59.0809379239" lon="30.0760250911"><ele>99.43</ele><time>2026-04-25T15:58:27Z</time></trkpt><trkpt lat="59.0809376724" lon="30.0760244206"><ele>99.22</ele><time>2026-04-25T15:58:28Z</time></trkpt><trkpt lat="59.0809947532" lon="30.0760056451"><ele>99.67</ele><time>2026-04-25T15:58:43Z</time></trkpt><trkpt lat="59.0811236668" lon="30.0759120192"><ele>98.94</ele><time>2026-04-25T15:58:58Z</time></trkpt><trkpt lat="59.0812774748" lon="30.0759285316"><ele>99.17</ele><time>2026-04-25T15:59:19Z</time></trkpt><trkpt lat="59.0814130940" lon="30.0760609657"><ele>99.17</ele><time>2026-04-25T15:59:34Z</time></trkpt><trkpt lat="59.0815619566" lon="30.0760256778"><ele>99.17</ele><time>2026-04-25T15:59:52Z</time></trkpt><trkpt lat="59.0817207098" lon="30.0760082435"><ele>99.17</ele><time>2026-04-25T16:00:09Z</time></trkpt><trkpt lat="59.0817756951" lon="30.0760088302"><ele>99.17</ele><time>2026-04-25T16:00:28Z</time></trkpt><trkpt lat="59.0817728452" lon="30.0760051422"><ele>99.17</ele><time>2026-04-25T16:00:55Z</time></trkpt><trkpt lat="59.0817678161" lon="30.0760035496"><ele>99.17</ele><time>2026-04-25T16:01:18Z</time></trkpt><trkpt lat="59.0817661397" lon="30.0760099199"><ele>99.17</ele><time>2026-04-25T16:01:40Z</time></trkpt><trkpt lat="59.0817642957" lon="30.0760092493"><ele>99.17</ele><time>2026-04-25T16:02:44Z</time></trkpt><trkpt lat="59.0817623679" lon="30.0760125183"><ele>99.17</ele><time>2026-04-25T16:03:36Z</time></trkpt><trkpt lat="59.0817639604" lon="30.0760136079"><ele>99.17</ele><time>2026-04-25T16:05:08Z</time></trkpt><trkpt lat="59.0817681514" lon="30.0760214031"><ele>99.17</ele><time>2026-04-25T16:05:44Z</time></trkpt><trkpt lat="59.0817676485" lon="30.0760188047"><ele>99.17</ele><time>2026-04-25T16:06:57Z</time></trkpt><trkpt lat="59.0817664750" lon="30.0760144461"><ele>99.17</ele><time>2026-04-25T16:08:05Z</time></trkpt><trkpt lat="59.0817669779" lon="30.0760149490"><ele>99.17</ele><time>2026-04-25T16:09:10Z</time></trkpt><trkpt lat="59.0817715880" lon="30.0760161225"><ele>99.17</ele><time>2026-04-25T16:09:54Z</time></trkpt><trkpt lat="59.0817726776" lon="30.0760176312"><ele>99.17</ele><time>2026-04-25T16:10:24Z</time></trkpt><trkpt lat="59.0817751922" lon="30.0760119315"><ele>99.17</ele><time>2026-04-25T16:11:37Z</time></trkpt><trkpt lat="59.0817700792" lon="30.0760011189"><ele>99.17</ele><time>2026-04-25T16:12:57Z</time></trkpt><trkpt lat="59.0817735996" lon="30.0760088302"><ele>99.17</ele><time>2026-04-25T16:13:31Z</time></trkpt><trkpt lat="59.0817730967" lon="30.0760101713"><ele>99.17</ele><time>2026-04-25T16:14:34Z</time></trkpt><trkpt lat="59.0817731805" lon="30.0760224927"><ele>99.17</ele><time>2026-04-25T16:16:23Z</time></trkpt><trkpt lat="59.0817749407" lon="30.0760368258"><ele>99.17</ele><time>2026-04-25T16:17:25Z</time></trkpt><trkpt lat="59.0817727614" lon="30.0760530867"><ele>99.17</ele><time>2026-04-25T16:18:15Z</time></trkpt><trkpt lat="59.0817741025" lon="30.0760536734"><ele>99.17</ele><time>2026-04-25T16:19:27Z</time></trkpt><trkpt lat="59.0817826521" lon="30.0760653242"><ele>99.17</ele><time>2026-04-25T16:20:58Z</time></trkpt><trkpt lat="59.0817838255" lon="30.0760668330"><ele>99.17</ele><time>2026-04-25T16:21:48Z</time></trkpt><trkpt lat="59.0817827359" lon="30.0760589540"><ele>99.17</ele><time>2026-04-25T16:22:11Z</time></trkpt><trkpt lat="59.0817772876" lon="30.0760515779"><ele>99.17</ele><time>2026-04-25T16:22:45Z</time></trkpt><trkpt lat="59.0817934647" lon="30.0760452077"><ele>99.17</ele><time>2026-04-25T16:23:06Z</time></trkpt><trkpt lat="59.0818129107" lon="30.0760405976"><ele>99.17</ele><time>2026-04-25T16:23:23Z</time></trkpt><trkpt lat="59.0818524733" lon="30.0760535896"><ele>99.17</ele><time>2026-04-25T16:23:46Z</time></trkpt><trkpt lat="59.0818688180" lon="30.0760550145"><ele>99.17</ele><time>2026-04-25T16:23:49Z</time></trkpt><trkpt lat="59.0819269884" lon="30.0760000292"><ele>99.17</ele><time>2026-04-25T16:23:59Z</time></trkpt><trkpt lat="59.0819726698" lon="30.0759707764"><ele>99.17</ele><time>2026-04-25T16:24:06Z</time></trkpt><trkpt lat="59.0820000786" lon="30.0759470556"><ele>99.45</ele><time>2026-04-25T16:24:09Z</time></trkpt><trkpt lat="59.0820122324" lon="30.0759377517"><ele>101.39</ele><time>2026-04-25T16:24:12Z</time></trkpt><trkpt lat="59.0820984822" lon="30.0759046432"><ele>101.56</ele><time>2026-04-25T16:24:33Z</time></trkpt><trkpt lat="59.0821399726" lon="30.0758803356"><ele>101.79</ele><time>2026-04-25T16:24:49Z</time></trkpt><trkpt lat="59.0821946226" lon="30.0758365821"><ele>101.11</ele><time>2026-04-25T16:24:59Z</time></trkpt><trkpt lat="59.0824098699" lon="30.0757670961"><ele>100.79</ele><time>2026-04-25T16:25:18Z</time></trkpt><trkpt lat="59.0825035796" lon="30.0757487398"><ele>101.86</ele><time>2026-04-25T16:25:29Z</time></trkpt><trkpt lat="59.0825311560" lon="30.0757227559"><ele>101.51</ele><time>2026-04-25T16:25:32Z</time></trkpt><trkpt lat="59.0826119576" lon="30.0756683573"><ele>102.97</ele><time>2026-04-25T16:25:46Z</time></trkpt><trkpt lat="59.0826868080" lon="30.0754852127"><ele>101.94</ele><time>2026-04-25T16:26:05Z</time></trkpt><trkpt lat="59.0826941002" lon="30.0754852127"><ele>101.99</ele><time>2026-04-25T16:26:07Z</time></trkpt><trkpt lat="59.0827402007" lon="30.0754593965"><ele>99.56</ele><time>2026-04-25T16:26:12Z</time></trkpt><trkpt lat="59.0828136262" lon="30.0754964445"><ele>102.59</ele><time>2026-04-25T16:26:25Z</time></trkpt><trkpt lat="59.0828305576" lon="30.0754931755"><ele>101.92</ele><time>2026-04-25T16:26:28Z</time></trkpt><trkpt lat="59.0828668512" lon="30.0754975341"><ele>101.69</ele><time>2026-04-25T16:26:33Z</time></trkpt><trkpt lat="59.0829657577" lon="30.0754956901"><ele>103.57</ele><time>2026-04-25T16:26:56Z</time></trkpt><trkpt lat="59.0829718765" lon="30.0754830334"><ele>104.28</ele><time>2026-04-25T16:26:58Z</time></trkpt><trkpt lat="59.0830130316" lon="30.0754877273"><ele>101.62</ele><time>2026-04-25T16:27:17Z</time></trkpt><trkpt lat="59.0830746386" lon="30.0755873043"><ele>100.36</ele><time>2026-04-25T16:27:36Z</time></trkpt><trkpt lat="59.0831099264" lon="30.0756488275"><ele>101.04</ele><time>2026-04-25T16:27:39Z</time></trkpt><trkpt lat="59.0831521712" lon="30.0757329818"><ele>98.60</ele><time>2026-04-25T16:27:59Z</time></trkpt><trkpt lat="59.0831620619" lon="30.0757478178"><ele>101.68</ele><time>2026-04-25T16:28:09Z</time></trkpt><trkpt lat="59.0831630677" lon="30.0757468957"><ele>99.54</ele><time>2026-04-25T16:28:18Z</time></trkpt><trkpt lat="59.0831637383" lon="30.0757477339"><ele>101.70</ele><time>2026-04-25T16:28:20Z</time></trkpt><trkpt lat="59.0831722878" lon="30.0757723767"><ele>101.70</ele><time>2026-04-25T16:28:45Z</time></trkpt><trkpt lat="59.0831709467" lon="30.0758124422"><ele>101.70</ele><time>2026-04-25T16:29:41Z</time></trkpt><trkpt lat="59.0831644926" lon="30.0758417789"><ele>101.70</ele><time>2026-04-25T16:30:32Z</time></trkpt><trkpt lat="59.0831325576" lon="30.0759789068"><ele>101.70</ele><time>2026-04-25T16:30:54Z</time></trkpt><trkpt lat="59.0831064060" lon="30.0760836806"><ele>101.70</ele><time>2026-04-25T16:31:14Z</time></trkpt><trkpt lat="59.0830911510" lon="30.0761540886"><ele>101.70</ele><time>2026-04-25T16:31:21Z</time></trkpt><trkpt lat="59.0830742195" lon="30.0762616284"><ele>101.37</ele><time>2026-04-25T16:31:44Z</time></trkpt><trkpt lat="59.0830727946" lon="30.0762632210"><ele>103.15</ele><time>2026-04-25T16:31:48Z</time></trkpt><trkpt lat="59.0830745548" lon="30.0762783084"><ele>102.77</ele><time>2026-04-25T16:32:15Z</time></trkpt><trkpt lat="59.0830302145" lon="30.0763401669"><ele>102.63</ele><time>2026-04-25T16:32:39Z</time></trkpt><trkpt lat="59.0829103533" lon="30.0765106548"><ele>102.76</ele><time>2026-04-25T16:32:59Z</time></trkpt><trkpt lat="59.0828116983" lon="30.0766263250"><ele>102.86</ele><time>2026-04-25T16:33:09Z</time></trkpt><trkpt lat="59.0827308130" lon="30.0766945537"><ele>102.82</ele><time>2026-04-25T16:33:19Z</time></trkpt><trkpt lat="59.0826738160" lon="30.0767637882"><ele>102.87</ele><time>2026-04-25T16:33:26Z</time></trkpt><trkpt lat="59.0825667791" lon="30.0768983178"><ele>103.17</ele><time>2026-04-25T16:33:34Z</time></trkpt><trkpt lat="59.0824987181" lon="30.0769473519"><ele>103.05</ele><time>2026-04-25T16:33:46Z</time></trkpt><trkpt lat="59.0824206825" lon="30.0770244654"><ele>98.98</ele><time>2026-04-25T16:33:50Z</time></trkpt><trkpt lat="59.0823256318" lon="30.0771665387"><ele>102.01</ele><time>2026-04-25T16:34:00Z</time></trkpt><trkpt lat="59.0823097900" lon="30.0771919359"><ele>105.66</ele><time>2026-04-25T16:34:04Z</time></trkpt><trkpt lat="59.0822983067" lon="30.0772082806"><ele>106.08</ele><time>2026-04-25T16:34:05Z</time></trkpt><trkpt lat="59.0822720714" lon="30.0772257149"><ele>103.80</ele><time>2026-04-25T16:34:27Z</time></trkpt><trkpt lat="59.0822584927" lon="30.0772801135"><ele>103.33</ele><time>2026-04-25T16:34:52Z</time></trkpt><trkpt lat="59.0820773598" lon="30.0775621645"><ele>103.33</ele><time>2026-04-25T16:35:18Z</time></trkpt><trkpt lat="59.0819227137" lon="30.0777683593"><ele>103.33</ele><time>2026-04-25T16:35:39Z</time></trkpt><trkpt lat="59.0817415807" lon="30.0780318864"><ele>103.33</ele><time>2026-04-25T16:36:04Z</time></trkpt><trkpt lat="59.0815354697" lon="30.0783757120"><ele>103.33</ele><time>2026-04-25T16:36:30Z</time></trkpt><trkpt lat="59.0814425144" lon="30.0785392430"><ele>103.33</ele><time>2026-04-25T16:36:45Z</time></trkpt><trkpt lat="59.0812278539" lon="30.0788428355"><ele>103.33</ele><time>2026-04-25T16:37:09Z</time></trkpt><trkpt lat="59.0811905544" lon="30.0788704120"><ele>103.33</ele><time>2026-04-25T16:37:11Z</time></trkpt><trkpt lat="59.0811523329" lon="30.0788507983"><ele>103.33</ele><time>2026-04-25T16:37:33Z</time></trkpt><trkpt lat="59.0810613055" lon="30.0788640417"><ele>103.33</ele><time>2026-04-25T16:37:51Z</time></trkpt><trkpt lat="59.0810103435" lon="30.0789046101"><ele>103.33</ele><time>2026-04-25T16:38:13Z</time></trkpt><trkpt lat="59.0809545200" lon="30.0789869204"><ele>103.33</ele><time>2026-04-25T16:38:34Z</time></trkpt><trkpt lat="59.0809222497" lon="30.0791291613"><ele>103.33</ele><time>2026-04-25T16:38:47Z</time></trkpt><trkpt lat="59.0808337368" lon="30.0793320034"><ele>103.33</ele><time>2026-04-25T16:39:14Z</time></trkpt><trkpt lat="59.0806873050" lon="30.0795728993"><ele>103.15</ele><time>2026-04-25T16:39:38Z</time></trkpt><trkpt lat="59.0806282964" lon="30.0796661898"><ele>103.01</ele><time>2026-04-25T16:39:46Z</time></trkpt><trkpt lat="59.0805302281" lon="30.0796944369"><ele>99.35</ele><time>2026-04-25T16:39:51Z</time></trkpt><trkpt lat="59.0805223491" lon="30.0796939339"><ele>103.91</ele><time>2026-04-25T16:39:59Z</time></trkpt><trkpt lat="59.0805258695" lon="30.0796876475"><ele>106.44</ele><time>2026-04-25T16:40:03Z</time></trkpt><trkpt lat="59.0805261210" lon="30.0796973705"><ele>104.98</ele><time>2026-04-25T16:40:06Z</time></trkpt><trkpt lat="59.0805248637" lon="30.0797052495"><ele>103.16</ele><time>2026-04-25T16:40:38Z</time></trkpt><trkpt lat="59.0804976225" lon="30.0797408726"><ele>101.35</ele><time>2026-04-25T16:40:47Z</time></trkpt><trkpt lat="59.0803449880" lon="30.0800211634"><ele>102.89</ele><time>2026-04-25T16:41:18Z</time></trkpt><trkpt lat="59.0802647732" lon="30.0801635720"><ele>102.70</ele><time>2026-04-25T16:41:32Z</time></trkpt><trkpt lat="59.0801700577" lon="30.0803179666"><ele>104.92</ele><time>2026-04-25T16:41:59Z</time></trkpt><trkpt lat="59.0801306628" lon="30.0803538412"><ele>104.46</ele><time>2026-04-25T16:42:10Z</time></trkpt><trkpt lat="59.0800830536" lon="30.0804181304"><ele>103.32</ele><time>2026-04-25T16:42:24Z</time></trkpt><trkpt lat="59.0800332651" lon="30.0804909691"><ele>103.35</ele><time>2026-04-25T16:42:48Z</time></trkpt><trkpt lat="59.0799826384" lon="30.0805950724"><ele>103.51</ele><time>2026-04-25T16:43:11Z</time></trkpt><trkpt lat="59.0799412318" lon="30.0806563441"><ele>103.51</ele><time>2026-04-25T16:43:21Z</time></trkpt><trkpt lat="59.0799294133" lon="30.0806703418"><ele>103.51</ele><time>2026-04-25T16:43:23Z</time></trkpt><trkpt lat="59.0798236337" lon="30.0808387343"><ele>104.04</ele><time>2026-04-25T16:43:35Z</time></trkpt><trkpt lat="59.0797825623" lon="30.0809105672"><ele>103.39</ele><time>2026-04-25T16:43:41Z</time></trkpt><trkpt lat="59.0797194466" lon="30.0809974875"><ele>104.91</ele><time>2026-04-25T16:43:48Z</time></trkpt><trkpt lat="59.0796494577" lon="30.0810309313"><ele>105.39</ele><time>2026-04-25T16:43:52Z</time></trkpt><trkpt lat="59.0794234816" lon="30.0813603401"><ele>104.12</ele><time>2026-04-25T16:44:19Z</time></trkpt><trkpt lat="59.0793086495" lon="30.0814427342"><ele>103.32</ele><time>2026-04-25T16:44:39Z</time></trkpt><trkpt lat="59.0792642254" lon="30.0814872421"><ele>103.51</ele><time>2026-04-25T16:44:44Z</time></trkpt><trkpt lat="59.0791473817" lon="30.0816413853"><ele>103.64</ele><time>2026-04-25T16:44:55Z</time></trkpt><trkpt lat="59.0791151114" lon="30.0816754997"><ele>103.66</ele><time>2026-04-25T16:44:58Z</time></trkpt><trkpt lat="59.0790700167" lon="30.0817331672"><ele>104.26</ele><time>2026-04-25T16:45:04Z</time></trkpt><trkpt lat="59.0790535044" lon="30.0817781780"><ele>103.58</ele><time>2026-04-25T16:45:07Z</time></trkpt><trkpt lat="59.0790286940" lon="30.0818097778"><ele>103.13</ele><time>2026-04-25T16:45:10Z</time></trkpt><trkpt lat="59.0789529216" lon="30.0819236040"><ele>103.50</ele><time>2026-04-25T16:45:26Z</time></trkpt><trkpt lat="59.0788660850" lon="30.0819783378"><ele>103.39</ele><time>2026-04-25T16:45:37Z</time></trkpt><trkpt lat="59.0788046457" lon="30.0820481591"><ele>103.41</ele><time>2026-04-25T16:45:45Z</time></trkpt><trkpt lat="59.0787758958" lon="30.0821185671"><ele>103.48</ele><time>2026-04-25T16:45:49Z</time></trkpt><trkpt lat="59.0787639935" lon="30.0821459759"><ele>103.43</ele><time>2026-04-25T16:45:51Z</time></trkpt><trkpt lat="59.0786713734" lon="30.0822610594"><ele>103.49</ele><time>2026-04-25T16:46:08Z</time></trkpt><trkpt lat="59.0785430465" lon="30.0826154463"><ele>103.77</ele><time>2026-04-25T16:46:34Z</time></trkpt><trkpt lat="59.0784583054" lon="30.0826836750"><ele>103.77</ele><time>2026-04-25T16:46:54Z</time></trkpt><trkpt lat="59.0783710498" lon="30.0826776400"><ele>103.77</ele><time>2026-04-25T16:47:09Z</time></trkpt><trkpt lat="59.0782130510" lon="30.0827166159"><ele>103.77</ele><time>2026-04-25T16:47:30Z</time></trkpt><trkpt lat="59.0781935211" lon="30.0827171188"><ele>103.77</ele><time>2026-04-25T16:47:33Z</time></trkpt><trkpt lat="59.0779672097" lon="30.0828550849"><ele>103.66</ele><time>2026-04-25T16:47:54Z</time></trkpt><trkpt lat="59.0779055189" lon="30.0828671549"><ele>103.93</ele><time>2026-04-25T16:48:02Z</time></trkpt><trkpt lat="59.0778032597" lon="30.0828473736"><ele>103.43</ele><time>2026-04-25T16:48:11Z</time></trkpt><trkpt lat="59.0776948817" lon="30.0828864332"><ele>100.28</ele><time>2026-04-25T16:48:21Z</time></trkpt><trkpt lat="59.0776925348" lon="30.0828869361"><ele>102.13</ele><time>2026-04-25T16:48:28Z</time></trkpt><trkpt lat="59.0776935406" lon="30.0828874391"><ele>106.45</ele><time>2026-04-25T16:48:40Z</time></trkpt><trkpt lat="59.0776937082" lon="30.0828889478"><ele>106.70</ele><time>2026-04-25T16:48:41Z</time></trkpt><trkpt lat="59.0776867513" lon="30.0828881934"><ele>103.68</ele><time>2026-04-25T16:48:59Z</time></trkpt><trkpt lat="59.0776937082" lon="30.0828921329"><ele>102.93</ele><time>2026-04-25T16:49:25Z</time></trkpt><trkpt lat="59.0777575783" lon="30.0828907918"><ele>102.71</ele><time>2026-04-25T16:49:41Z</time></trkpt><trkpt lat="59.0777888428" lon="30.0828097388"><ele>103.34</ele><time>2026-04-25T16:50:14Z</time></trkpt><trkpt lat="59.0777921118" lon="30.0828000996"><ele>103.34</ele><time>2026-04-25T16:51:08Z</time></trkpt><trkpt lat="59.0777728334" lon="30.0826889556"><ele>103.34</ele><time>2026-04-25T16:51:34Z</time></trkpt><trkpt lat="59.0777582489" lon="30.0824669190"><ele>103.34</ele><time>2026-04-25T16:52:03Z</time></trkpt><trkpt lat="59.0777913574" lon="30.0822103489"><ele>103.34</ele><time>2026-04-25T16:52:20Z</time></trkpt><trkpt lat="59.0777784493" lon="30.0820520148"><ele>103.34</ele><time>2026-04-25T16:52:37Z</time></trkpt><trkpt lat="59.0777641162" lon="30.0819277950"><ele>103.34</ele><time>2026-04-25T16:52:52Z</time></trkpt><trkpt lat="59.0777590033" lon="30.0819001347"><ele>100.51</ele><time>2026-04-25T16:53:01Z</time></trkpt><trkpt lat="59.0777584165" lon="30.0818952732"><ele>103.54</ele><time>2026-04-25T16:53:08Z</time></trkpt><trkpt lat="59.0777502023" lon="30.0818583090"><ele>106.01</ele><time>2026-04-25T16:53:12Z</time></trkpt><trkpt lat="59.0777476877" lon="30.0815468375"><ele>103.92</ele><time>2026-04-25T16:53:29Z</time></trkpt><trkpt lat="59.0777579136" lon="30.0814843085"><ele>103.79</ele><time>2026-04-25T16:53:32Z</time></trkpt><trkpt lat="59.0777352825" lon="30.0811322685"><ele>103.86</ele><time>2026-04-25T16:53:54Z</time></trkpt><trkpt lat="59.0777023416" lon="30.0807373971"><ele>103.64</ele><time>2026-04-25T16:54:14Z</time></trkpt><trkpt lat="59.0776936244" lon="30.0805154443"><ele>102.50</ele><time>2026-04-25T16:54:27Z</time></trkpt><trkpt lat="59.0776902717" lon="30.0804851018"><ele>100.93</ele><time>2026-04-25T16:54:30Z</time></trkpt><trkpt lat="59.0776961390" lon="30.0804561004"><ele>100.93</ele><time>2026-04-25T16:54:50Z</time></trkpt><trkpt lat="59.0776926186" lon="30.0804493111"><ele>100.93</ele><time>2026-04-25T16:55:34Z</time></trkpt><trkpt lat="59.0776735917" lon="30.0803117640"><ele>100.93</ele><time>2026-04-25T16:55:59Z</time></trkpt><trkpt lat="59.0776586719" lon="30.0801064912"><ele>100.93</ele><time>2026-04-25T16:56:17Z</time></trkpt><trkpt lat="59.0776386391" lon="30.0798841193"><ele>100.93</ele><time>2026-04-25T16:56:31Z</time></trkpt><trkpt lat="59.0776335262" lon="30.0798410363"><ele>104.44</ele><time>2026-04-25T16:56:34Z</time></trkpt><trkpt lat="59.0776313469" lon="30.0798251107"><ele>104.45</ele><time>2026-04-25T16:56:35Z</time></trkpt><trkpt lat="59.0776260663" lon="30.0797479134"><ele>104.58</ele><time>2026-04-25T16:56:39Z</time></trkpt><trkpt lat="59.0776257310" lon="30.0795215182"><ele>104.70</ele><time>2026-04-25T16:56:50Z</time></trkpt><trkpt lat="59.0776412375" lon="30.0793566462"><ele>105.19</ele><time>2026-04-25T16:57:10Z</time></trkpt><trkpt lat="59.0775959753" lon="30.0791843142"><ele>105.19</ele><time>2026-04-25T16:57:28Z</time></trkpt><trkpt lat="59.0775853302" lon="30.0789200328"><ele>104.98</ele><time>2026-04-25T16:57:47Z</time></trkpt><trkpt lat="59.0775699075" lon="30.0786497165"><ele>101.76</ele><time>2026-04-25T16:58:06Z</time></trkpt><trkpt lat="59.0775670577" lon="30.0786003470"><ele>105.68</ele><time>2026-04-25T16:58:09Z</time></trkpt><trkpt lat="59.0775940474" lon="30.0783255883"><ele>105.78</ele><time>2026-04-25T16:58:25Z</time></trkpt><trkpt lat="59.0775871743" lon="30.0781159569"><ele>102.06</ele><time>2026-04-25T16:58:31Z</time></trkpt><trkpt lat="59.0775864199" lon="30.0781027135"><ele>101.83</ele><time>2026-04-25T16:58:32Z</time></trkpt><trkpt lat="59.0775879286" lon="30.0780984387"><ele>106.01</ele><time>2026-04-25T16:58:37Z</time></trkpt><trkpt lat="59.0775916167" lon="30.0780934095"><ele>107.64</ele><time>2026-04-25T16:58:40Z</time></trkpt><trkpt lat="59.0775953885" lon="30.0780926552"><ele>105.32</ele><time>2026-04-25T16:59:20Z</time></trkpt><trkpt lat="59.0775960591" lon="30.0780840218"><ele>102.32</ele><time>2026-04-25T16:59:41Z</time></trkpt><trkpt lat="59.0775960591" lon="30.0780850276"><ele>105.67</ele><time>2026-04-25T16:59:44Z</time></trkpt><trkpt lat="59.0775988251" lon="30.0780785736"><ele>105.81</ele><time>2026-04-25T17:00:12Z</time></trkpt><trkpt lat="59.0775959753" lon="30.0779774040"><ele>105.82</ele><time>2026-04-25T17:00:30Z</time></trkpt><trkpt lat="59.0775901079" lon="30.0778395217"><ele>105.70</ele><time>2026-04-25T17:00:48Z</time></trkpt><trkpt lat="59.0776063688" lon="30.0776940957"><ele>105.86</ele><time>2026-04-25T17:01:07Z</time></trkpt><trkpt lat="59.0776056983" lon="30.0775992125"><ele>105.91</ele><time>2026-04-25T17:01:28Z</time></trkpt><trkpt lat="59.0776118170" lon="30.0775246974"><ele>106.01</ele><time>2026-04-25T17:01:46Z</time></trkpt><trkpt lat="59.0775934607" lon="30.0773871504"><ele>106.48</ele><time>2026-04-25T17:02:10Z</time></trkpt><trkpt lat="59.0775948018" lon="30.0772531237"><ele>106.75</ele><time>2026-04-25T17:02:34Z</time></trkpt><trkpt lat="59.0775939636" lon="30.0771868229"><ele>107.10</ele><time>2026-04-25T17:02:50Z</time></trkpt><trkpt lat="59.0775735117" lon="30.0769877527"><ele>107.62</ele><time>2026-04-25T17:03:13Z</time></trkpt><trkpt lat="59.0775780380" lon="30.0769113936"><ele>107.89</ele><time>2026-04-25T17:03:22Z</time></trkpt><trkpt lat="59.0775735117" lon="30.0768645387"><ele>107.93</ele><time>2026-04-25T17:03:25Z</time></trkpt><trkpt lat="59.0775308479" lon="30.0764606148"><ele>108.18</ele><time>2026-04-25T17:03:44Z</time></trkpt><trkpt lat="59.0775464382" lon="30.0764326192"><ele>104.79</ele><time>2026-04-25T17:03:51Z</time></trkpt><trkpt lat="59.0775419958" lon="30.0764013547"><ele>107.34</ele><time>2026-04-25T17:03:58Z</time></trkpt><trkpt lat="59.0775342006" lon="30.0763435196"><ele>110.79</ele><time>2026-04-25T17:04:06Z</time></trkpt><trkpt lat="59.0775327757" lon="30.0763183739"><ele>111.31</ele><time>2026-04-25T17:04:08Z</time></trkpt><trkpt lat="59.0775187779" lon="30.0762497261"><ele>108.15</ele><time>2026-04-25T17:04:21Z</time></trkpt><trkpt lat="59.0775186941" lon="30.0761803240"><ele>107.31</ele><time>2026-04-25T17:04:23Z</time></trkpt><trkpt lat="59.0775138326" lon="30.0761393365"><ele>109.92</ele><time>2026-04-25T17:04:27Z</time></trkpt><trkpt lat="59.0774882678" lon="30.0761036295"><ele>106.74</ele><time>2026-04-25T17:04:32Z</time></trkpt><trkpt lat="59.0774818137" lon="30.0758985244"><ele>109.76</ele><time>2026-04-25T17:04:43Z</time></trkpt><trkpt lat="59.0774671454" lon="30.0758881308"><ele>111.66</ele><time>2026-04-25T17:04:46Z</time></trkpt><trkpt lat="59.0774445143" lon="30.0758473109"><ele>108.59</ele><time>2026-04-25T17:05:05Z</time></trkpt><trkpt lat="59.0774430893" lon="30.0758336484"><ele>108.20</ele><time>2026-04-25T17:05:25Z</time></trkpt><trkpt lat="59.0774433408" lon="30.0758391805"><ele>104.52</ele><time>2026-04-25T17:05:30Z</time></trkpt><trkpt lat="59.0774423350" lon="30.0758357439"><ele>104.34</ele><time>2026-04-25T17:05:31Z</time></trkpt><trkpt lat="59.0774392337" lon="30.0758297089"><ele>107.40</ele><time>2026-04-25T17:05:45Z</time></trkpt><trkpt lat="59.0774372220" lon="30.0758117717"><ele>107.82</ele><time>2026-04-25T17:06:17Z</time></trkpt><trkpt lat="59.0774378087" lon="30.0758060720"><ele>110.84</ele><time>2026-04-25T17:06:24Z</time></trkpt><trkpt lat="59.0774199553" lon="30.0757417828"><ele>109.33</ele><time>2026-04-25T17:06:35Z</time></trkpt><trkpt lat="59.0774177760" lon="30.0756689440"><ele>106.51</ele><time>2026-04-25T17:06:52Z</time></trkpt><trkpt lat="59.0772306919" lon="30.0752185844"><ele>108.39</ele><time>2026-04-25T17:07:40Z</time></trkpt><trkpt lat="59.0770955756" lon="30.0752837118"><ele>108.73</ele><time>2026-04-25T17:08:06Z</time></trkpt><trkpt lat="59.0770570189" lon="30.0752965361"><ele>106.05</ele><time>2026-04-25T17:08:19Z</time></trkpt><trkpt lat="59.0770552587" lon="30.0753005594"><ele>109.10</ele><time>2026-04-25T17:08:34Z</time></trkpt><trkpt lat="59.0770543367" lon="30.0753018167"><ele>111.10</ele><time>2026-04-25T17:08:36Z</time></trkpt><trkpt lat="59.0770663228" lon="30.0754030701"><ele>109.04</ele><time>2026-04-25T17:09:00Z</time></trkpt><trkpt lat="59.0770379920" lon="30.0757540204"><ele>107.84</ele><time>2026-04-25T17:09:23Z</time></trkpt><trkpt lat="59.0770130139" lon="30.0759058166"><ele>104.25</ele><time>2026-04-25T17:09:31Z</time></trkpt><trkpt lat="59.0770099126" lon="30.0759594608"><ele>103.36</ele><time>2026-04-25T17:09:33Z</time></trkpt><trkpt lat="59.0770089068" lon="30.0760151166"><ele>107.70</ele><time>2026-04-25T17:09:36Z</time></trkpt><trkpt lat="59.0769946575" lon="30.0761023723"><ele>108.50</ele><time>2026-04-25T17:09:54Z</time></trkpt><trkpt lat="59.0769951604" lon="30.0761125982"><ele>107.95</ele><time>2026-04-25T17:10:22Z</time></trkpt><trkpt lat="59.0769940708" lon="30.0761143584"><ele>104.70</ele><time>2026-04-25T17:10:41Z</time></trkpt><trkpt lat="59.0769940708" lon="30.0761168730"><ele>102.38</ele><time>2026-04-25T17:10:44Z</time></trkpt><trkpt lat="59.0769953281" lon="30.0761174597"><ele>105.45</ele><time>2026-04-25T17:10:51Z</time></trkpt><trkpt lat="59.0769948252" lon="30.0761188846"><ele>108.92</ele><time>2026-04-25T17:10:58Z</time></trkpt><trkpt lat="59.0769948252" lon="30.0761181302"><ele>111.15</ele><time>2026-04-25T17:11:02Z</time></trkpt><trkpt lat="59.0769927297" lon="30.0761223212"><ele>107.83</ele><time>2026-04-25T17:11:13Z</time></trkpt><trkpt lat="59.0769763011" lon="30.0761017017"><ele>109.48</ele><time>2026-04-25T17:11:29Z</time></trkpt><trkpt lat="59.0769005287" lon="30.0760556012"><ele>108.19</ele><time>2026-04-25T17:11:42Z</time></trkpt><trkpt lat="59.0767363273" lon="30.0762186293"><ele>107.52</ele><time>2026-04-25T17:12:04Z</time></trkpt><trkpt lat="59.0765583795" lon="30.0764265843"><ele>107.47</ele><time>2026-04-25T17:12:22Z</time></trkpt><trkpt lat="59.0764236823" lon="30.0764613692"><ele>107.57</ele><time>2026-04-25T17:12:36Z</time></trkpt><trkpt lat="59.0763353370" lon="30.0764990877"><ele>107.50</ele><time>2026-04-25T17:12:56Z</time></trkpt><trkpt lat="59.0762390289" lon="30.0765367225"><ele>107.50</ele><time>2026-04-25T17:13:17Z</time></trkpt><trkpt lat="59.0761084389" lon="30.0765458588"><ele>107.50</ele><time>2026-04-25T17:13:38Z</time></trkpt><trkpt lat="59.0760175791" lon="30.0765356328"><ele>109.22</ele><time>2026-04-25T17:13:53Z</time></trkpt><trkpt lat="59.0759898350" lon="30.0765361357"><ele>109.42</ele><time>2026-04-25T17:13:55Z</time></trkpt><trkpt lat="59.0759298205" lon="30.0765637960"><ele>107.86</ele><time>2026-04-25T17:14:18Z</time></trkpt><trkpt lat="59.0758916829" lon="30.0765600242"><ele>107.72</ele><time>2026-04-25T17:14:28Z</time></trkpt><trkpt lat="59.0758508630" lon="30.0765479542"><ele>107.72</ele><time>2026-04-25T17:14:34Z</time></trkpt><trkpt lat="59.0757597517" lon="30.0765676517"><ele>107.34</ele><time>2026-04-25T17:15:00Z</time></trkpt><trkpt lat="59.0757249668" lon="30.0765969884"><ele>108.34</ele><time>2026-04-25T17:15:22Z</time></trkpt><trkpt lat="59.0757244639" lon="30.0765992515"><ele>106.26</ele><time>2026-04-25T17:15:26Z</time></trkpt><trkpt lat="59.0757242963" lon="30.0765997544"><ele>104.52</ele><time>2026-04-25T17:15:29Z</time></trkpt><trkpt lat="59.0757238772" lon="30.0766024366"><ele>108.40</ele><time>2026-04-25T17:15:34Z</time></trkpt><trkpt lat="59.0757235419" lon="30.0766036939"><ele>109.22</ele><time>2026-04-25T17:15:36Z</time></trkpt><trkpt lat="59.0757206921" lon="30.0766057894"><ele>105.93</ele><time>2026-04-25T17:15:47Z</time></trkpt><trkpt lat="59.0757203568" lon="30.0766062085"><ele>105.24</ele><time>2026-04-25T17:15:49Z</time></trkpt><trkpt lat="59.0757187642" lon="30.0766058732"><ele>108.26</ele><time>2026-04-25T17:15:56Z</time></trkpt><trkpt lat="59.0757149924" lon="30.0765998382"><ele>109.90</ele><time>2026-04-25T17:16:02Z</time></trkpt><trkpt lat="59.0757045150" lon="30.0765997544"><ele>107.28</ele><time>2026-04-25T17:16:37Z</time></trkpt><trkpt lat="59.0756988153" lon="30.0766101480"><ele>106.86</ele><time>2026-04-25T17:17:03Z</time></trkpt><trkpt lat="59.0755283274" lon="30.0765419193"><ele>107.20</ele><time>2026-04-25T17:17:33Z</time></trkpt><trkpt lat="59.0753571689" lon="30.0763978343"><ele>107.77</ele><time>2026-04-25T17:17:53Z</time></trkpt><trkpt lat="59.0752788819" lon="30.0762971677"><ele>107.85</ele><time>2026-04-25T17:18:03Z</time></trkpt><trkpt lat="59.0752299316" lon="30.0762683339"><ele>108.97</ele><time>2026-04-25T17:18:21Z</time></trkpt><trkpt lat="59.0751043707" lon="30.0763336290"><ele>108.56</ele><time>2026-04-25T17:18:41Z</time></trkpt><trkpt lat="59.0749903768" lon="30.0764463656"><ele>108.62</ele><time>2026-04-25T17:19:01Z</time></trkpt><trkpt lat="59.0748970024" lon="30.0766160991"><ele>108.48</ele><time>2026-04-25T17:19:22Z</time></trkpt><trkpt lat="59.0748874471" lon="30.0766336173"><ele>108.48</ele><time>2026-04-25T17:20:07Z</time></trkpt><trkpt lat="59.0748880338" lon="30.0766424183"><ele>108.48</ele><time>2026-04-25T17:20:32Z</time></trkpt><trkpt lat="59.0749101620" lon="30.0767750200"><ele>108.48</ele><time>2026-04-25T17:20:48Z</time></trkpt><trkpt lat="59.0749420132" lon="30.0769595895"><ele>108.48</ele><time>2026-04-25T17:21:10Z</time></trkpt><trkpt lat="59.0749710985" lon="30.0773227774"><ele>107.25</ele><time>2026-04-25T17:21:34Z</time></trkpt><trkpt lat="59.0750122536" lon="30.0774731487"><ele>107.81</ele><time>2026-04-25T17:21:56Z</time></trkpt><trkpt lat="59.0750305261" lon="30.0776648428"><ele>107.40</ele><time>2026-04-25T17:22:18Z</time></trkpt><trkpt lat="59.0750102419" lon="30.0777500030"><ele>107.48</ele><time>2026-04-25T17:22:23Z</time></trkpt><trkpt lat="59.0749964118" lon="30.0779457204"><ele>109.91</ele><time>2026-04-25T17:22:44Z</time></trkpt><trkpt lat="59.0750051290" lon="30.0780527573"><ele>107.76</ele><time>2026-04-25T17:23:07Z</time></trkpt><trkpt lat="59.0750247426" lon="30.0781661645"><ele>107.76</ele><time>2026-04-25T17:23:25Z</time></trkpt><trkpt lat="59.0750588570" lon="30.0783685874"><ele>108.04</ele><time>2026-04-25T17:23:41Z</time></trkpt><trkpt lat="59.0750482120" lon="30.0784734450"><ele>108.05</ele><time>2026-04-25T17:23:48Z</time></trkpt><trkpt lat="59.0750555880" lon="30.0785869360"><ele>108.68</ele><time>2026-04-25T17:24:15Z</time></trkpt><trkpt lat="59.0750531573" lon="30.0786088966"><ele>108.07</ele><time>2026-04-25T17:24:38Z</time></trkpt><trkpt lat="59.0750622097" lon="30.0786457770"><ele>108.07</ele><time>2026-04-25T17:25:07Z</time></trkpt><trkpt lat="59.0750844218" lon="30.0786953978"><ele>108.07</ele><time>2026-04-25T17:25:29Z</time></trkpt><trkpt lat="59.0751035325" lon="30.0788230542"><ele>108.07</ele><time>2026-04-25T17:25:42Z</time></trkpt><trkpt lat="59.0751389042" lon="30.0791009143"><ele>108.07</ele><time>2026-04-25T17:26:05Z</time></trkpt><trkpt lat="59.0751478728" lon="30.0791623536"><ele>108.07</ele><time>2026-04-25T17:26:10Z</time></trkpt><trkpt lat="59.0751489624" lon="30.0794661976"><ele>110.56</ele><time>2026-04-25T17:26:36Z</time></trkpt><trkpt lat="59.0751563385" lon="30.0794711430"><ele>110.39</ele><time>2026-04-25T17:26:37Z</time></trkpt><trkpt lat="59.0751805622" lon="30.0795235299"><ele>107.95</ele><time>2026-04-25T17:26:54Z</time></trkpt><trkpt lat="59.0751831606" lon="30.0795683730"><ele>107.77</ele><time>2026-04-25T17:27:00Z</time></trkpt><trkpt lat="59.0751884412" lon="30.0796083547"><ele>107.65</ele><time>2026-04-25T17:27:04Z</time></trkpt><trkpt lat="59.0752146766" lon="30.0797045790"><ele>107.28</ele><time>2026-04-25T17:27:27Z</time></trkpt><trkpt lat="59.0752913710" lon="30.0799180660"><ele>106.92</ele><time>2026-04-25T17:27:52Z</time></trkpt><trkpt lat="59.0753596835" lon="30.0799214188"><ele>109.93</ele><time>2026-04-25T17:28:13Z</time></trkpt><trkpt lat="59.0753608570" lon="30.0799154676"><ele>106.88</ele><time>2026-04-25T17:28:25Z</time></trkpt><trkpt lat="59.0753601026" lon="30.0799161382"><ele>106.60</ele><time>2026-04-25T17:28:26Z</time></trkpt><trkpt lat="59.0753590129" lon="30.0799164735"><ele>109.63</ele><time>2026-04-25T17:28:31Z</time></trkpt><trkpt lat="59.0753630362" lon="30.0799186528"><ele>106.40</ele><time>2026-04-25T17:28:42Z</time></trkpt><trkpt lat="59.0753693227" lon="30.0799264479"><ele>107.74</ele><time>2026-04-25T17:30:07Z</time></trkpt><trkpt lat="59.0753729269" lon="30.0799388532"><ele>108.35</ele><time>2026-04-25T17:31:27Z</time></trkpt><trkpt lat="59.0753740165" lon="30.0799444690"><ele>108.34</ele><time>2026-04-25T17:32:30Z</time></trkpt><trkpt lat="59.0753782075" lon="30.0799551141"><ele>108.34</ele><time>2026-04-25T17:33:52Z</time></trkpt><trkpt lat="59.0753808897" lon="30.0799526833"><ele>108.34</ele><time>2026-04-25T17:34:29Z</time></trkpt><trkpt lat="59.0753832366" lon="30.0799505878"><ele>108.34</ele><time>2026-04-25T17:35:28Z</time></trkpt><trkpt lat="59.0753844101" lon="30.0799489114"><ele>108.34</ele><time>2026-04-25T17:36:41Z</time></trkpt><trkpt lat="59.0753871761" lon="30.0799541082"><ele>108.34</ele><time>2026-04-25T17:37:36Z</time></trkpt><trkpt lat="59.0753850807" lon="30.0799592212"><ele>108.34</ele><time>2026-04-25T17:38:06Z</time></trkpt><trkpt lat="59.0753922891" lon="30.0799559522"><ele>108.34</ele><time>2026-04-25T17:38:36Z</time></trkpt><trkpt lat="59.0753905289" lon="30.0799549464"><ele>108.34</ele><time>2026-04-25T17:39:08Z</time></trkpt><trkpt lat="59.0753837395" lon="30.0799717940"><ele>108.34</ele><time>2026-04-25T17:39:21Z</time></trkpt><trkpt lat="59.0753917024" lon="30.0799857080"><ele>108.34</ele><time>2026-04-25T17:39:43Z</time></trkpt><trkpt lat="59.0753943007" lon="30.0799906533"><ele>108.34</ele><time>2026-04-25T17:40:05Z</time></trkpt><trkpt lat="59.0753887687" lon="30.0799786672"><ele>108.34</ele><time>2026-04-25T17:40:31Z</time></trkpt><trkpt lat="59.0753791295" lon="30.0799874682"><ele>108.34</ele><time>2026-04-25T17:40:34Z</time></trkpt><trkpt lat="59.0753675625" lon="30.0800327305"><ele>104.79</ele><time>2026-04-25T17:40:51Z</time></trkpt><trkpt lat="59.0753677301" lon="30.0800327305"><ele>105.13</ele><time>2026-04-25T17:40:52Z</time></trkpt><trkpt lat="59.0753678977" lon="30.0800330658"><ele>106.38</ele><time>2026-04-25T17:40:54Z</time></trkpt><trkpt lat="59.0753698256" lon="30.0800346583"><ele>110.80</ele><time>2026-04-25T17:41:10Z</time></trkpt><trkpt lat="59.0753704961" lon="30.0800338201"><ele>112.50</ele><time>2026-04-25T17:41:13Z</time></trkpt><trkpt lat="59.0753708314" lon="30.0800514221"><ele>109.38</ele><time>2026-04-25T17:41:32Z</time></trkpt><trkpt lat="59.0753731783" lon="30.0800976902"><ele>106.69</ele><time>2026-04-25T17:41:38Z</time></trkpt><trkpt lat="59.0754067898" lon="30.0803329702"><ele>107.74</ele><time>2026-04-25T17:41:55Z</time></trkpt><trkpt lat="59.0754155908" lon="30.0803916436"><ele>110.96</ele><time>2026-04-25T17:41:59Z</time></trkpt><trkpt lat="59.0754248947" lon="30.0804182980"><ele>110.68</ele><time>2026-04-25T17:42:09Z</time></trkpt><trkpt lat="59.0754226316" lon="30.0804503169"><ele>108.81</ele><time>2026-04-25T17:42:32Z</time></trkpt><trkpt lat="59.0754227992" lon="30.0804515742"><ele>105.60</ele><time>2026-04-25T17:42:35Z</time></trkpt><trkpt lat="59.0754229669" lon="30.0804527476"><ele>103.61</ele><time>2026-04-25T17:42:38Z</time></trkpt><trkpt lat="59.0754238050" lon="30.0804547593"><ele>107.18</ele><time>2026-04-25T17:42:44Z</time></trkpt><trkpt lat="59.0754227154" lon="30.0804583635"><ele>107.39</ele><time>2026-04-25T17:42:45Z</time></trkpt><trkpt lat="59.0754242241" lon="30.0804639794"><ele>108.85</ele><time>2026-04-25T17:42:50Z</time></trkpt><trkpt lat="59.0754248947" lon="30.0804664101"><ele>111.39</ele><time>2026-04-25T17:42:55Z</time></trkpt><trkpt lat="59.0754254814" lon="30.0804681703"><ele>107.74</ele><time>2026-04-25T17:43:01Z</time></trkpt><trkpt lat="59.0754256491" lon="30.0804699305"><ele>111.05</ele><time>2026-04-25T17:43:10Z</time></trkpt><trkpt lat="59.0754255652" lon="30.0804708526"><ele>107.79</ele><time>2026-04-25T17:43:14Z</time></trkpt><trkpt lat="59.0754254814" lon="30.0804714393"><ele>106.98</ele><time>2026-04-25T17:43:16Z</time></trkpt><trkpt lat="59.0754271578" lon="30.0804723613"><ele>110.08</ele><time>2026-04-25T17:43:20Z</time></trkpt><trkpt lat="59.0754304267" lon="30.0804740377"><ele>111.18</ele><time>2026-04-25T17:43:22Z</time></trkpt><trkpt lat="59.0754295047" lon="30.0804838445"><ele>108.17</ele><time>2026-04-25T17:43:42Z</time></trkpt><trkpt lat="59.0754186083" lon="30.0804918073"><ele>105.09</ele><time>2026-04-25T17:43:52Z</time></trkpt><trkpt lat="59.0754186921" lon="30.0804919749"><ele>108.96</ele><time>2026-04-25T17:43:57Z</time></trkpt><trkpt lat="59.0754191112" lon="30.0804900471"><ele>111.27</ele><time>2026-04-25T17:44:01Z</time></trkpt><trkpt lat="59.0754061192" lon="30.0805076491"><ele>110.22</ele><time>2026-04-25T17:44:20Z</time></trkpt><trkpt lat="59.0753917862" lon="30.0804852694"><ele>109.51</ele><time>2026-04-25T17:44:49Z</time></trkpt><trkpt lat="59.0752627887" lon="30.0805713516"><ele>109.80</ele><time>2026-04-25T17:45:25Z</time></trkpt><trkpt lat="59.0751379821" lon="30.0807603635"><ele>109.90</ele><time>2026-04-25T17:45:54Z</time></trkpt><trkpt lat="59.0750714298" lon="30.0808343757"><ele>108.74</ele><time>2026-04-25T17:46:04Z</time></trkpt><trkpt lat="59.0749609563" lon="30.0808882713"><ele>111.29</ele><time>2026-04-25T17:46:17Z</time></trkpt><trkpt lat="59.0749558434" lon="30.0808943063"><ele>111.27</ele><time>2026-04-25T17:46:18Z</time></trkpt><trkpt lat="59.0748861060" lon="30.0809374731"><ele>108.17</ele><time>2026-04-25T17:46:27Z</time></trkpt><trkpt lat="59.0748368204" lon="30.0809767842"><ele>108.50</ele><time>2026-04-25T17:46:34Z</time></trkpt><trkpt lat="59.0748203080" lon="30.0809855852"><ele>109.37</ele><time>2026-04-25T17:46:36Z</time></trkpt><trkpt lat="59.0748127643" lon="30.0810072105"><ele>109.79</ele><time>2026-04-25T17:46:38Z</time></trkpt><trkpt lat="59.0746548492" lon="30.0811242219"><ele>111.89</ele><time>2026-04-25T17:46:46Z</time></trkpt><trkpt lat="59.0746030491" lon="30.0811683945"><ele>110.27</ele><time>2026-04-25T17:46:55Z</time></trkpt><trkpt lat="59.0745775681" lon="30.0811850745"><ele>108.87</ele><time>2026-04-25T17:46:57Z</time></trkpt><trkpt lat="59.0744196530" lon="30.0812201947"><ele>109.69</ele><time>2026-04-25T17:47:25Z</time></trkpt><trkpt lat="59.0744039789" lon="30.0812268164"><ele>109.87</ele><time>2026-04-25T17:47:38Z</time></trkpt><trkpt lat="59.0743781626" lon="30.0812758505"><ele>110.22</ele><time>2026-04-25T17:47:45Z</time></trkpt><trkpt lat="59.0743599739" lon="30.0812904350"><ele>109.95</ele><time>2026-04-25T17:47:47Z</time></trkpt><trkpt lat="59.0743422043" lon="30.0813024212"><ele>109.57</ele><time>2026-04-25T17:47:49Z</time></trkpt><trkpt lat="59.0742726345" lon="30.0813356135"><ele>109.58</ele><time>2026-04-25T17:48:05Z</time></trkpt><trkpt lat="59.0742113627" lon="30.0813673809"><ele>109.11</ele><time>2026-04-25T17:48:17Z</time></trkpt><trkpt lat="59.0741884802" lon="30.0813899282"><ele>108.93</ele><time>2026-04-25T17:48:22Z</time></trkpt><trkpt lat="59.0741393622" lon="30.0814260542"><ele>109.85</ele><time>2026-04-25T17:48:29Z</time></trkpt><trkpt lat="59.0741104446" lon="30.0814327598"><ele>109.40</ele><time>2026-04-25T17:48:33Z</time></trkpt><trkpt lat="59.0739545412" lon="30.0814661197"><ele>105.66</ele><time>2026-04-25T17:48:45Z</time></trkpt><trkpt lat="59.0739556309" lon="30.0814659521"><ele>109.24</ele><time>2026-04-25T17:48:48Z</time></trkpt><trkpt lat="59.0739717241" lon="30.0814707298"><ele>109.53</ele><time>2026-04-25T17:49:15Z</time></trkpt><trkpt lat="59.0739569720" lon="30.0814634375"><ele>108.24</ele><time>2026-04-25T17:49:36Z</time></trkpt><trkpt lat="59.0738757513" lon="30.0814522896"><ele>109.68</ele><time>2026-04-25T17:49:55Z</time></trkpt><trkpt lat="59.0738580655" lon="30.0814475119"><ele>109.56</ele><time>2026-04-25T17:49:58Z</time></trkpt><trkpt lat="59.0737322532" lon="30.0814337656"><ele>109.78</ele><time>2026-04-25T17:50:22Z</time></trkpt><trkpt lat="59.0736340173" lon="30.0814801175"><ele>109.29</ele><time>2026-04-25T17:50:36Z</time></trkpt><trkpt lat="59.0734555665" lon="30.0815114658"><ele>107.92</ele><time>2026-04-25T17:50:51Z</time></trkpt><trkpt lat="59.0734069515" lon="30.0814841408"><ele>109.62</ele><time>2026-04-25T17:50:55Z</time></trkpt><trkpt lat="59.0732573345" lon="30.0814672094"><ele>108.41</ele><time>2026-04-25T17:51:15Z</time></trkpt><trkpt lat="59.0732435044" lon="30.0814536307"><ele>107.77</ele><time>2026-04-25T17:51:18Z</time></trkpt><trkpt lat="59.0731583443" lon="30.0814449973"><ele>108.55</ele><time>2026-04-25T17:51:28Z</time></trkpt><trkpt lat="59.0730809793" lon="30.0813281536"><ele>111.66</ele><time>2026-04-25T17:51:39Z</time></trkpt><trkpt lat="59.0730622038" lon="30.0812227931"><ele>108.56</ele><time>2026-04-25T17:51:51Z</time></trkpt><trkpt lat="59.0730326995" lon="30.0811404828"><ele>108.03</ele><time>2026-04-25T17:52:09Z</time></trkpt><trkpt lat="59.0730204619" lon="30.0811193604"><ele>111.58</ele><time>2026-04-25T17:52:15Z</time></trkpt><trkpt lat="59.0730205458" lon="30.0811181031"><ele>111.80</ele><time>2026-04-25T17:52:16Z</time></trkpt><trkpt lat="59.0729397442" lon="30.0810202863"><ele>108.67</ele><time>2026-04-25T17:52:42Z</time></trkpt><trkpt lat="59.0729312785" lon="30.0810015108"><ele>112.03</ele><time>2026-04-25T17:52:56Z</time></trkpt><trkpt lat="59.0729323681" lon="30.0810000859"><ele>112.86</ele><time>2026-04-25T17:52:58Z</time></trkpt><trkpt lat="59.0728981700" lon="30.0809586793"><ele>109.91</ele><time>2026-04-25T17:53:21Z</time></trkpt><trkpt lat="59.0728214756" lon="30.0809773710"><ele>110.99</ele><time>2026-04-25T17:53:38Z</time></trkpt><trkpt lat="59.0726489760" lon="30.0811040215"><ele>111.28</ele><time>2026-04-25T17:54:03Z</time></trkpt><trkpt lat="59.0726118442" lon="30.0811369624"><ele>109.44</ele><time>2026-04-25T17:54:16Z</time></trkpt><trkpt lat="59.0725171287" lon="30.0811194442"><ele>110.09</ele><time>2026-04-25T17:54:45Z</time></trkpt><trkpt lat="59.0725234151" lon="30.0811157562"><ele>109.82</ele><time>2026-04-25T17:55:02Z</time></trkpt><trkpt lat="59.0725202300" lon="30.0811381359"><ele>109.24</ele><time>2026-04-25T17:55:23Z</time></trkpt><trkpt lat="59.0724992752" lon="30.0811204500"><ele>109.85</ele><time>2026-04-25T17:55:42Z</time></trkpt><trkpt lat="59.0724281967" lon="30.0811461825"><ele>109.97</ele><time>2026-04-25T17:56:01Z</time></trkpt><trkpt lat="59.0723732114" lon="30.0812028442"><ele>109.97</ele><time>2026-04-25T17:56:08Z</time></trkpt><trkpt lat="59.0720967762" lon="30.0813834742"><ele>110.10</ele><time>2026-04-25T17:56:32Z</time></trkpt><trkpt lat="59.0720758215" lon="30.0813947897"><ele>110.98</ele><time>2026-04-25T17:56:34Z</time></trkpt><trkpt lat="59.0720267035" lon="30.0814200193"><ele>109.48</ele><time>2026-04-25T17:56:52Z</time></trkpt><trkpt lat="59.0718039963" lon="30.0814333465"><ele>109.39</ele><time>2026-04-25T17:57:21Z</time></trkpt><trkpt lat="59.0717832092" lon="30.0814037584"><ele>107.99</ele><time>2026-04-25T17:57:24Z</time></trkpt><trkpt lat="59.0717552137" lon="30.0813982263"><ele>111.15</ele><time>2026-04-25T17:57:31Z</time></trkpt><trkpt lat="59.0717234462" lon="30.0813972205"><ele>110.83</ele><time>2026-04-25T17:57:38Z</time></trkpt><trkpt lat="59.0715643577" lon="30.0815049279"><ele>110.14</ele><time>2026-04-25T17:58:02Z</time></trkpt><trkpt lat="59.0714412276" lon="30.0816090312"><ele>109.80</ele><time>2026-04-25T17:58:28Z</time></trkpt><trkpt lat="59.0714352764" lon="30.0815852266"><ele>108.78</ele><time>2026-04-25T17:59:02Z</time></trkpt><trkpt lat="59.0714296605" lon="30.0815774314"><ele>109.96</ele><time>2026-04-25T17:59:30Z</time></trkpt><trkpt lat="59.0714253858" lon="30.0815754198"><ele>109.85</ele><time>2026-04-25T17:59:33Z</time></trkpt><trkpt lat="59.0713704843" lon="30.0815923512"><ele>110.27</ele><time>2026-04-25T17:59:42Z</time></trkpt><trkpt lat="59.0713363700" lon="30.0815875735"><ele>108.49</ele><time>2026-04-25T18:00:07Z</time></trkpt><trkpt lat="59.0713087097" lon="30.0815966260"><ele>109.74</ele><time>2026-04-25T18:00:19Z</time></trkpt><trkpt lat="59.0712529700" lon="30.0816164073"><ele>110.32</ele><time>2026-04-25T18:00:31Z</time></trkpt><trkpt lat="59.0712145809" lon="30.0816309918"><ele>110.63</ele><time>2026-04-25T18:00:39Z</time></trkpt><trkpt lat="59.0710715018" lon="30.0817129668"><ele>110.00</ele><time>2026-04-25T18:00:54Z</time></trkpt><trkpt lat="59.0709068812" lon="30.0817034114"><ele>112.52</ele><time>2026-04-25T18:01:04Z</time></trkpt><trkpt lat="59.0708989184" lon="30.0817074347"><ele>112.78</ele><time>2026-04-25T18:01:05Z</time></trkpt><trkpt lat="59.0708271693" lon="30.0817414653"><ele>110.45</ele><time>2026-04-25T18:01:25Z</time></trkpt><trkpt lat="59.0708233137" lon="30.0817428902"><ele>109.82</ele><time>2026-04-25T18:01:27Z</time></trkpt><trkpt lat="59.0707010217" lon="30.0818617456"><ele>110.27</ele><time>2026-04-25T18:01:45Z</time></trkpt><trkpt lat="59.0706513170" lon="30.0818984583"><ele>108.38</ele><time>2026-04-25T18:01:56Z</time></trkpt><trkpt lat="59.0706077311" lon="30.0819097739"><ele>111.70</ele><time>2026-04-25T18:02:02Z</time></trkpt><trkpt lat="59.0705628879" lon="30.0819228496"><ele>110.21</ele><time>2026-04-25T18:02:11Z</time></trkpt><trkpt lat="59.0704851039" lon="30.0819362607"><ele>110.35</ele><time>2026-04-25T18:02:19Z</time></trkpt><trkpt lat="59.0704644844" lon="30.0819339138"><ele>110.24</ele><time>2026-04-25T18:02:21Z</time></trkpt><trkpt lat="59.0703058988" lon="30.0819645077"><ele>109.97</ele><time>2026-04-25T18:02:34Z</time></trkpt><trkpt lat="59.0702827647" lon="30.0819748174"><ele>112.59</ele><time>2026-04-25T18:02:38Z</time></trkpt><trkpt lat="59.0702562779" lon="30.0819997955"><ele>109.32</ele><time>2026-04-25T18:02:58Z</time></trkpt><trkpt lat="59.0702513326" lon="30.0820036512"><ele>108.45</ele><time>2026-04-25T18:03:00Z</time></trkpt><trkpt lat="59.0702509135" lon="30.0819982029"><ele>111.86</ele><time>2026-04-25T18:03:13Z</time></trkpt><trkpt lat="59.0702362452" lon="30.0819927547"><ele>108.71</ele><time>2026-04-25T18:03:29Z</time></trkpt><trkpt lat="59.0700981952" lon="30.0820279587"><ele>110.72</ele><time>2026-04-25T18:03:48Z</time></trkpt><trkpt lat="59.0700572077" lon="30.0820537750"><ele>110.72</ele><time>2026-04-25T18:03:54Z</time></trkpt><trkpt lat="59.0699919127" lon="30.0820406154"><ele>108.39</ele><time>2026-04-25T18:04:16Z</time></trkpt><trkpt lat="59.0699842013" lon="30.0820038188"><ele>111.71</ele><time>2026-04-25T18:04:36Z</time></trkpt><trkpt lat="59.0698831994" lon="30.0820294674"><ele>110.72</ele><time>2026-04-25T18:04:59Z</time></trkpt><trkpt lat="59.0697558783" lon="30.0820799265"><ele>110.03</ele><time>2026-04-25T18:05:24Z</time></trkpt><trkpt lat="59.0696428902" lon="30.0821629073"><ele>110.61</ele><time>2026-04-25T18:05:43Z</time></trkpt><trkpt lat="59.0693708137" lon="30.0823719520"><ele>112.38</ele><time>2026-04-25T18:06:07Z</time></trkpt><trkpt lat="59.0692438278" lon="30.0825224072"><ele>109.01</ele><time>2026-04-25T18:06:22Z</time></trkpt><trkpt lat="59.0692403913" lon="30.0825278554"><ele>110.99</ele><time>2026-04-25T18:06:59Z</time></trkpt><trkpt lat="59.0691433288" lon="30.0825852714"><ele>110.08</ele><time>2026-04-25T18:07:28Z</time></trkpt><trkpt lat="59.0689822286" lon="30.0827832520"><ele>110.92</ele><time>2026-04-25T18:07:52Z</time></trkpt><trkpt lat="59.0689519700" lon="30.0828106608"><ele>113.43</ele><time>2026-04-25T18:07:56Z</time></trkpt><trkpt lat="59.0689117368" lon="30.0828486308"><ele>111.38</ele><time>2026-04-25T18:08:02Z</time></trkpt><trkpt lat="59.0689005889" lon="30.0828587729"><ele>111.21</ele><time>2026-04-25T18:08:04Z</time></trkpt><trkpt lat="59.0688202903" lon="30.0829150993"><ele>111.54</ele><time>2026-04-25T18:08:14Z</time></trkpt><trkpt lat="59.0687589347" lon="30.0829133391"><ele>110.87</ele><time>2026-04-25T18:08:21Z</time></trkpt><trkpt lat="59.0686937235" lon="30.0828604493"><ele>111.36</ele><time>2026-04-25T18:08:37Z</time></trkpt><trkpt lat="59.0686505567" lon="30.0828327890"><ele>111.13</ele><time>2026-04-25T18:08:47Z</time></trkpt><trkpt lat="59.0685998462" lon="30.0828164443"><ele>110.82</ele><time>2026-04-25T18:08:53Z</time></trkpt><trkpt lat="59.0683436114" lon="30.0827502273"><ele>111.98</ele><time>2026-04-25T18:09:15Z</time></trkpt><trkpt lat="59.0682400111" lon="30.0826381613"><ele>111.41</ele><time>2026-04-25T18:09:35Z</time></trkpt><trkpt lat="59.0682321321" lon="30.0826399215"><ele>109.92</ele><time>2026-04-25T18:09:38Z</time></trkpt><trkpt lat="59.0681724530" lon="30.0825870316"><ele>112.09</ele><time>2026-04-25T18:09:52Z</time></trkpt><trkpt lat="59.0680992790" lon="30.0826309528"><ele>110.17</ele><time>2026-04-25T18:10:23Z</time></trkpt><trkpt lat="59.0680990275" lon="30.0826302823"><ele>107.90</ele><time>2026-04-25T18:10:26Z</time></trkpt><trkpt lat="59.0680974349" lon="30.0826346409"><ele>111.17</ele><time>2026-04-25T18:10:33Z</time></trkpt><trkpt lat="59.0680962615" lon="30.0825939886"><ele>114.25</ele><time>2026-04-25T18:10:46Z</time></trkpt><trkpt lat="59.0680924896" lon="30.0825784821"><ele>114.94</ele><time>2026-04-25T18:10:48Z</time></trkpt><trkpt lat="59.0680685174" lon="30.0825442839"><ele>112.82</ele><time>2026-04-25T18:10:54Z</time></trkpt><trkpt lat="59.0680421144" lon="30.0824913941"><ele>112.34</ele><time>2026-04-25T18:11:02Z</time></trkpt><trkpt lat="59.0680173039" lon="30.0823056512"><ele>111.66</ele><time>2026-04-25T18:11:14Z</time></trkpt><trkpt lat="59.0679845307" lon="30.0818836223"><ele>111.96</ele><time>2026-04-25T18:11:34Z</time></trkpt><trkpt lat="59.0679724608" lon="30.0818204228"><ele>112.11</ele><time>2026-04-25T18:11:39Z</time></trkpt><trkpt lat="59.0679410286" lon="30.0816995557"><ele>112.12</ele><time>2026-04-25T18:11:44Z</time></trkpt><trkpt lat="59.0679114405" lon="30.0814102124"><ele>111.99</ele><time>2026-04-25T18:11:57Z</time></trkpt><trkpt lat="59.0678739734" lon="30.0808934681"><ele>112.08</ele><time>2026-04-25T18:12:21Z</time></trkpt><trkpt lat="59.0678670164" lon="30.0808592699"><ele>112.05</ele><time>2026-04-25T18:12:23Z</time></trkpt><trkpt lat="59.0678616520" lon="30.0808224734"><ele>112.17</ele><time>2026-04-25T18:12:25Z</time></trkpt><trkpt lat="59.0678330697" lon="30.0803704374"><ele>111.72</ele><time>2026-04-25T18:12:41Z</time></trkpt><trkpt lat="59.0678278729" lon="30.0803449564"><ele>114.25</ele><time>2026-04-25T18:12:47Z</time></trkpt><trkpt lat="59.0678294655" lon="30.0803412683"><ele>112.21</ele><time>2026-04-25T18:12:56Z</time></trkpt><trkpt lat="59.0678360034" lon="30.0802744646"><ele>111.52</ele><time>2026-04-25T18:13:20Z</time></trkpt><trkpt lat="59.0678385179" lon="30.0802431162"><ele>112.95</ele><time>2026-04-25T18:13:23Z</time></trkpt><trkpt lat="59.0678197425" lon="30.0799860433"><ele>112.75</ele><time>2026-04-25T18:13:41Z</time></trkpt><trkpt lat="59.0677786712" lon="30.0796029065"><ele>112.60</ele><time>2026-04-25T18:13:59Z</time></trkpt><trkpt lat="59.0677396115" lon="30.0792221166"><ele>112.25</ele><time>2026-04-25T18:14:17Z</time></trkpt><trkpt lat="59.0676904097" lon="30.0786780473"><ele>113.06</ele><time>2026-04-25T18:14:37Z</time></trkpt><trkpt lat="59.0676541999" lon="30.0782611314"><ele>113.05</ele><time>2026-04-25T18:14:56Z</time></trkpt><trkpt lat="59.0676096082" lon="30.0777091831"><ele>112.60</ele><time>2026-04-25T18:15:19Z</time></trkpt><trkpt lat="59.0675625019" lon="30.0771398842"><ele>113.70</ele><time>2026-04-25T18:15:43Z</time></trkpt><trkpt lat="59.0675112046" lon="30.0766161829"><ele>113.52</ele><time>2026-04-25T18:16:01Z</time></trkpt><trkpt lat="59.0675071813" lon="30.0765523966"><ele>114.26</ele><time>2026-04-25T18:16:03Z</time></trkpt><trkpt lat="59.0674505197" lon="30.0760155357"><ele>112.92</ele><time>2026-04-25T18:16:24Z</time></trkpt><trkpt lat="59.0674090292" lon="30.0756419543"><ele>112.89</ele><time>2026-04-25T18:16:40Z</time></trkpt><trkpt lat="59.0673755854" lon="30.0751889125"><ele>112.30</ele><time>2026-04-25T18:16:59Z</time></trkpt><trkpt lat="59.0673481766" lon="30.0747582503"><ele>112.74</ele><time>2026-04-25T18:17:18Z</time></trkpt><trkpt lat="59.0673230309" lon="30.0743603613"><ele>114.08</ele><time>2026-04-25T18:17:35Z</time></trkpt><trkpt lat="59.0672507789" lon="30.0739012007"><ele>113.47</ele><time>2026-04-25T18:17:51Z</time></trkpt><trkpt lat="59.0672506113" lon="30.0736118574"><ele>113.35</ele><time>2026-04-25T18:18:11Z</time></trkpt><trkpt lat="59.0672597475" lon="30.0735726301"><ele>113.42</ele><time>2026-04-25T18:18:39Z</time></trkpt><trkpt lat="59.0672604181" lon="30.0735745579"><ele>110.19</ele><time>2026-04-25T18:18:55Z</time></trkpt><trkpt lat="59.0672608372" lon="30.0735753123"><ele>112.77</ele><time>2026-04-25T18:19:01Z</time></trkpt><trkpt lat="59.0672608372" lon="30.0735771563"><ele>112.42</ele><time>2026-04-25T18:19:14Z</time></trkpt></trkseg></trk></gpx>